<?xml version="1.0" encoding="UTF-8" standalone="no" ?>
<gpx xmlns="http://www.topografix.com/GPX/1/1" xmlns:xsi="http://www.w3.org/2001/XMLSchema-instance" xsi:schemaLocation="http://www.topografix.com/GPX/1/1 http://www.topografix.com/GPX/1/1/gpx.xsd" version="1.1" creator="VisuGPX - https://www.visugpx.com">
  <metadata>
    <name>Pal de fer</name>
    <desc><![CDATA[
]]></desc>
  </metadata>
  <trk>
    <name><![CDATA[Pal de fer_1]]></name>
    <extensions>
      <line xmlns="http://www.topografix.com/GPX/gpx_style/0/2">
        <color>0000FF</color>
        <width>4</width>
      </line>
    </extensions>
    <trkseg>
      <trkpt lat="45.29888" lon="5.89906">
        <ele>249.44599914551</ele>
        <time>2017-11-15T19:36:24Z</time>
      </trkpt>
      <trkpt lat="45.29886" lon="5.89899">
        <ele>249.44599914551</ele>
        <time>2017-11-15T19:36:55Z</time>
      </trkpt>
      <trkpt lat="45.29885" lon="5.89891">
        <ele>247.44599914551</ele>
        <time>2017-11-15T19:37:21Z</time>
      </trkpt>
      <trkpt lat="45.29887" lon="5.89884">
        <ele>247.44599914551</ele>
        <time>2017-11-15T19:37:26Z</time>
      </trkpt>
      <trkpt lat="45.2989" lon="5.89889">
        <ele>257.4460144043</ele>
        <time>2017-11-15T19:38:02Z</time>
      </trkpt>
      <trkpt lat="45.29895" lon="5.89889">
        <ele>257.4460144043</ele>
        <time>2017-11-15T19:38:06Z</time>
      </trkpt>
      <trkpt lat="45.29899" lon="5.89886">
        <ele>256.4460144043</ele>
        <time>2017-11-15T19:38:08Z</time>
      </trkpt>
      <trkpt lat="45.29903" lon="5.89883">
        <ele>255.44599914551</ele>
        <time>2017-11-15T19:38:10Z</time>
      </trkpt>
      <trkpt lat="45.29908" lon="5.89879">
        <ele>257.4460144043</ele>
        <time>2017-11-15T19:38:13Z</time>
      </trkpt>
      <trkpt lat="45.29914" lon="5.89876">
        <ele>257.4460144043</ele>
        <time>2017-11-15T19:38:16Z</time>
      </trkpt>
      <trkpt lat="45.29921" lon="5.89871">
        <ele>254.44599914551</ele>
        <time>2017-11-15T19:38:18Z</time>
      </trkpt>
      <trkpt lat="45.29926" lon="5.89868">
        <ele>255.44599914551</ele>
        <time>2017-11-15T19:38:20Z</time>
      </trkpt>
      <trkpt lat="45.29931" lon="5.89865">
        <ele>254.44599914551</ele>
        <time>2017-11-15T19:38:22Z</time>
      </trkpt>
      <trkpt lat="45.29936" lon="5.8986">
        <ele>257.4460144043</ele>
        <time>2017-11-15T19:38:25Z</time>
      </trkpt>
      <trkpt lat="45.2994" lon="5.89855">
        <ele>258.4460144043</ele>
        <time>2017-11-15T19:38:27Z</time>
      </trkpt>
      <trkpt lat="45.29945" lon="5.89852">
        <ele>260.4460144043</ele>
        <time>2017-11-15T19:38:30Z</time>
      </trkpt>
      <trkpt lat="45.29951" lon="5.89848">
        <ele>261.4460144043</ele>
        <time>2017-11-15T19:38:33Z</time>
      </trkpt>
      <trkpt lat="45.29955" lon="5.89845">
        <ele>262.4460144043</ele>
        <time>2017-11-15T19:38:35Z</time>
      </trkpt>
      <trkpt lat="45.29959" lon="5.89842">
        <ele>261.4460144043</ele>
        <time>2017-11-15T19:38:37Z</time>
      </trkpt>
      <trkpt lat="45.29964" lon="5.89839">
        <ele>263.4460144043</ele>
        <time>2017-11-15T19:38:40Z</time>
      </trkpt>
      <trkpt lat="45.29968" lon="5.89833">
        <ele>262.4460144043</ele>
        <time>2017-11-15T19:38:42Z</time>
      </trkpt>
      <trkpt lat="45.29971" lon="5.89825">
        <ele>262.4460144043</ele>
        <time>2017-11-15T19:38:45Z</time>
      </trkpt>
      <trkpt lat="45.29975" lon="5.89821">
        <ele>264.4460144043</ele>
        <time>2017-11-15T19:38:48Z</time>
      </trkpt>
      <trkpt lat="45.29979" lon="5.89817">
        <ele>264.4460144043</ele>
        <time>2017-11-15T19:38:50Z</time>
      </trkpt>
      <trkpt lat="45.29986" lon="5.89814">
        <ele>265.4460144043</ele>
        <time>2017-11-15T19:38:52Z</time>
      </trkpt>
      <trkpt lat="45.29992" lon="5.89811">
        <ele>263.4460144043</ele>
        <time>2017-11-15T19:38:55Z</time>
      </trkpt>
      <trkpt lat="45.29999" lon="5.89808">
        <ele>262.4460144043</ele>
        <time>2017-11-15T19:38:58Z</time>
      </trkpt>
      <trkpt lat="45.30004" lon="5.89807">
        <ele>265.4460144043</ele>
        <time>2017-11-15T19:39:03Z</time>
      </trkpt>
      <trkpt lat="45.3001" lon="5.89802">
        <ele>265.4460144043</ele>
        <time>2017-11-15T19:39:06Z</time>
      </trkpt>
      <trkpt lat="45.30014" lon="5.898">
        <ele>264.4460144043</ele>
        <time>2017-11-15T19:39:09Z</time>
      </trkpt>
      <trkpt lat="45.3002" lon="5.89799">
        <ele>266.4460144043</ele>
        <time>2017-11-15T19:39:12Z</time>
      </trkpt>
      <trkpt lat="45.30026" lon="5.89799">
        <ele>269.4460144043</ele>
        <time>2017-11-15T19:39:16Z</time>
      </trkpt>
      <trkpt lat="45.30031" lon="5.89797">
        <ele>270.4460144043</ele>
        <time>2017-11-15T19:39:19Z</time>
      </trkpt>
      <trkpt lat="45.30035" lon="5.89795">
        <ele>272.4460144043</ele>
        <time>2017-11-15T19:39:23Z</time>
      </trkpt>
      <trkpt lat="45.30041" lon="5.89794">
        <ele>274.4460144043</ele>
        <time>2017-11-15T19:39:27Z</time>
      </trkpt>
      <trkpt lat="45.3004" lon="5.89787">
        <ele>275.4460144043</ele>
        <time>2017-11-15T19:39:30Z</time>
      </trkpt>
      <trkpt lat="45.30044" lon="5.89782">
        <ele>273.4460144043</ele>
        <time>2017-11-15T19:39:32Z</time>
      </trkpt>
      <trkpt lat="45.30049" lon="5.89777">
        <ele>275.4460144043</ele>
        <time>2017-11-15T19:39:36Z</time>
      </trkpt>
      <trkpt lat="45.30053" lon="5.89771">
        <ele>274.4460144043</ele>
        <time>2017-11-15T19:39:40Z</time>
      </trkpt>
      <trkpt lat="45.30056" lon="5.89766">
        <ele>273.4460144043</ele>
        <time>2017-11-15T19:39:43Z</time>
      </trkpt>
      <trkpt lat="45.3006" lon="5.89759">
        <ele>274.4460144043</ele>
        <time>2017-11-15T19:39:46Z</time>
      </trkpt>
      <trkpt lat="45.30061" lon="5.89752">
        <ele>277.4460144043</ele>
        <time>2017-11-15T19:39:51Z</time>
      </trkpt>
      <trkpt lat="45.30062" lon="5.89745">
        <ele>276.4460144043</ele>
        <time>2017-11-15T19:39:55Z</time>
      </trkpt>
      <trkpt lat="45.30063" lon="5.89738">
        <ele>277.4460144043</ele>
        <time>2017-11-15T19:40:00Z</time>
      </trkpt>
      <trkpt lat="45.30064" lon="5.89731">
        <ele>280.4460144043</ele>
        <time>2017-11-15T19:40:04Z</time>
      </trkpt>
      <trkpt lat="45.30064" lon="5.89724">
        <ele>282.4460144043</ele>
        <time>2017-11-15T19:40:08Z</time>
      </trkpt>
      <trkpt lat="45.30064" lon="5.89717">
        <ele>283.4460144043</ele>
        <time>2017-11-15T19:40:12Z</time>
      </trkpt>
      <trkpt lat="45.30065" lon="5.8971">
        <ele>285.4460144043</ele>
        <time>2017-11-15T19:40:16Z</time>
      </trkpt>
      <trkpt lat="45.30066" lon="5.89704">
        <ele>290.4460144043</ele>
        <time>2017-11-15T19:40:20Z</time>
      </trkpt>
      <trkpt lat="45.30065" lon="5.89697">
        <ele>290.4460144043</ele>
        <time>2017-11-15T19:40:23Z</time>
      </trkpt>
      <trkpt lat="45.30067" lon="5.89689">
        <ele>287.4460144043</ele>
        <time>2017-11-15T19:40:26Z</time>
      </trkpt>
      <trkpt lat="45.30069" lon="5.89682">
        <ele>290.4460144043</ele>
        <time>2017-11-15T19:40:30Z</time>
      </trkpt>
      <trkpt lat="45.30073" lon="5.89677">
        <ele>291.4460144043</ele>
        <time>2017-11-15T19:40:32Z</time>
      </trkpt>
      <trkpt lat="45.30076" lon="5.89669">
        <ele>293.4460144043</ele>
        <time>2017-11-15T19:40:36Z</time>
      </trkpt>
      <trkpt lat="45.30076" lon="5.89662">
        <ele>294.4460144043</ele>
        <time>2017-11-15T19:40:41Z</time>
      </trkpt>
      <trkpt lat="45.30074" lon="5.89653">
        <ele>300.4460144043</ele>
        <time>2017-11-15T19:40:47Z</time>
      </trkpt>
      <trkpt lat="45.30079" lon="5.89648">
        <ele>302.4460144043</ele>
        <time>2017-11-15T19:40:52Z</time>
      </trkpt>
      <trkpt lat="45.30081" lon="5.89643">
        <ele>302.4460144043</ele>
        <time>2017-11-15T19:40:55Z</time>
      </trkpt>
      <trkpt lat="45.30084" lon="5.89636">
        <ele>301.4460144043</ele>
        <time>2017-11-15T19:40:59Z</time>
      </trkpt>
      <trkpt lat="45.30087" lon="5.89631">
        <ele>304.4460144043</ele>
        <time>2017-11-15T19:41:06Z</time>
      </trkpt>
      <trkpt lat="45.30089" lon="5.89625">
        <ele>304.4460144043</ele>
        <time>2017-11-15T19:41:10Z</time>
      </trkpt>
      <trkpt lat="45.30091" lon="5.89617">
        <ele>305.4460144043</ele>
        <time>2017-11-15T19:41:15Z</time>
      </trkpt>
      <trkpt lat="45.30087" lon="5.89615">
        <ele>308.4460144043</ele>
        <time>2017-11-15T19:41:18Z</time>
      </trkpt>
      <trkpt lat="45.30082" lon="5.8961">
        <ele>307.4460144043</ele>
        <time>2017-11-15T19:41:21Z</time>
      </trkpt>
      <trkpt lat="45.30076" lon="5.8961">
        <ele>309.4460144043</ele>
        <time>2017-11-15T19:41:23Z</time>
      </trkpt>
      <trkpt lat="45.30071" lon="5.89605">
        <ele>310.4460144043</ele>
        <time>2017-11-15T19:41:26Z</time>
      </trkpt>
      <trkpt lat="45.30067" lon="5.89602">
        <ele>310.4460144043</ele>
        <time>2017-11-15T19:41:29Z</time>
      </trkpt>
      <trkpt lat="45.30069" lon="5.89596">
        <ele>312.4460144043</ele>
        <time>2017-11-15T19:41:33Z</time>
      </trkpt>
      <trkpt lat="45.30067" lon="5.89589">
        <ele>308.4460144043</ele>
        <time>2017-11-15T19:41:36Z</time>
      </trkpt>
      <trkpt lat="45.30067" lon="5.89582">
        <ele>309.4460144043</ele>
        <time>2017-11-15T19:41:41Z</time>
      </trkpt>
      <trkpt lat="45.30067" lon="5.89575">
        <ele>310.4460144043</ele>
        <time>2017-11-15T19:41:47Z</time>
      </trkpt>
      <trkpt lat="45.30064" lon="5.89571">
        <ele>313.4460144043</ele>
        <time>2017-11-15T19:41:52Z</time>
      </trkpt>
      <trkpt lat="45.30063" lon="5.89564">
        <ele>315.4460144043</ele>
        <time>2017-11-15T19:41:59Z</time>
      </trkpt>
      <trkpt lat="45.30063" lon="5.89556">
        <ele>319.4460144043</ele>
        <time>2017-11-15T19:42:04Z</time>
      </trkpt>
      <trkpt lat="45.30063" lon="5.89549">
        <ele>321.4460144043</ele>
        <time>2017-11-15T19:42:09Z</time>
      </trkpt>
      <trkpt lat="45.3006" lon="5.89544">
        <ele>322.4460144043</ele>
        <time>2017-11-15T19:42:13Z</time>
      </trkpt>
      <trkpt lat="45.30057" lon="5.89538">
        <ele>323.4460144043</ele>
        <time>2017-11-15T19:42:19Z</time>
      </trkpt>
      <trkpt lat="45.30057" lon="5.89531">
        <ele>324.4460144043</ele>
        <time>2017-11-15T19:42:22Z</time>
      </trkpt>
      <trkpt lat="45.30052" lon="5.89528">
        <ele>326.4460144043</ele>
        <time>2017-11-15T19:42:26Z</time>
      </trkpt>
      <trkpt lat="45.30048" lon="5.89524">
        <ele>326.4460144043</ele>
        <time>2017-11-15T19:42:31Z</time>
      </trkpt>
      <trkpt lat="45.30046" lon="5.89516">
        <ele>329.4460144043</ele>
        <time>2017-11-15T19:42:37Z</time>
      </trkpt>
      <trkpt lat="45.30044" lon="5.8951">
        <ele>328.4460144043</ele>
        <time>2017-11-15T19:42:42Z</time>
      </trkpt>
      <trkpt lat="45.30042" lon="5.89504">
        <ele>331.4460144043</ele>
        <time>2017-11-15T19:42:48Z</time>
      </trkpt>
      <trkpt lat="45.30041" lon="5.89497">
        <ele>335.4460144043</ele>
        <time>2017-11-15T19:42:55Z</time>
      </trkpt>
      <trkpt lat="45.30038" lon="5.89493">
        <ele>335.4460144043</ele>
        <time>2017-11-15T19:42:59Z</time>
      </trkpt>
      <trkpt lat="45.30033" lon="5.89489">
        <ele>334.4460144043</ele>
        <time>2017-11-15T19:43:03Z</time>
      </trkpt>
      <trkpt lat="45.30031" lon="5.89483">
        <ele>335.4460144043</ele>
        <time>2017-11-15T19:43:07Z</time>
      </trkpt>
      <trkpt lat="45.30027" lon="5.89477">
        <ele>342.4460144043</ele>
        <time>2017-11-15T19:43:17Z</time>
      </trkpt>
      <trkpt lat="45.30027" lon="5.8947">
        <ele>344.4460144043</ele>
        <time>2017-11-15T19:43:23Z</time>
      </trkpt>
      <trkpt lat="45.30022" lon="5.89466">
        <ele>345.4460144043</ele>
        <time>2017-11-15T19:43:31Z</time>
      </trkpt>
      <trkpt lat="45.30017" lon="5.89461">
        <ele>346.4460144043</ele>
        <time>2017-11-15T19:43:36Z</time>
      </trkpt>
      <trkpt lat="45.30014" lon="5.89455">
        <ele>350.4460144043</ele>
        <time>2017-11-15T19:43:40Z</time>
      </trkpt>
      <trkpt lat="45.30009" lon="5.89448">
        <ele>350.4460144043</ele>
        <time>2017-11-15T19:43:45Z</time>
      </trkpt>
      <trkpt lat="45.30007" lon="5.89442">
        <ele>351.4460144043</ele>
        <time>2017-11-15T19:43:49Z</time>
      </trkpt>
      <trkpt lat="45.30007" lon="5.89434">
        <ele>354.4460144043</ele>
        <time>2017-11-15T19:43:55Z</time>
      </trkpt>
      <trkpt lat="45.30009" lon="5.89428">
        <ele>356.4460144043</ele>
        <time>2017-11-15T19:43:59Z</time>
      </trkpt>
      <trkpt lat="45.30012" lon="5.89421">
        <ele>357.4460144043</ele>
        <time>2017-11-15T19:44:03Z</time>
      </trkpt>
      <trkpt lat="45.30014" lon="5.89415">
        <ele>362.4460144043</ele>
        <time>2017-11-15T19:44:09Z</time>
      </trkpt>
      <trkpt lat="45.30017" lon="5.8941">
        <ele>361.4460144043</ele>
        <time>2017-11-15T19:44:12Z</time>
      </trkpt>
      <trkpt lat="45.30019" lon="5.89404">
        <ele>367.4460144043</ele>
        <time>2017-11-15T19:44:19Z</time>
      </trkpt>
      <trkpt lat="45.3002" lon="5.89396">
        <ele>365.4460144043</ele>
        <time>2017-11-15T19:44:22Z</time>
      </trkpt>
      <trkpt lat="45.30025" lon="5.89392">
        <ele>368.4460144043</ele>
        <time>2017-11-15T19:44:28Z</time>
      </trkpt>
      <trkpt lat="45.30027" lon="5.89385">
        <ele>368.4460144043</ele>
        <time>2017-11-15T19:44:33Z</time>
      </trkpt>
      <trkpt lat="45.30033" lon="5.89382">
        <ele>372.4460144043</ele>
        <time>2017-11-15T19:44:38Z</time>
      </trkpt>
      <trkpt lat="45.30034" lon="5.89376">
        <ele>367.4460144043</ele>
        <time>2017-11-15T19:44:41Z</time>
      </trkpt>
      <trkpt lat="45.30037" lon="5.89369">
        <ele>366.4460144043</ele>
        <time>2017-11-15T19:44:44Z</time>
      </trkpt>
      <trkpt lat="45.30041" lon="5.89366">
        <ele>373.4460144043</ele>
        <time>2017-11-15T19:44:48Z</time>
      </trkpt>
      <trkpt lat="45.30046" lon="5.89366">
        <ele>376.4460144043</ele>
        <time>2017-11-15T19:44:53Z</time>
      </trkpt>
      <trkpt lat="45.30051" lon="5.89363">
        <ele>378.4460144043</ele>
        <time>2017-11-15T19:44:56Z</time>
      </trkpt>
      <trkpt lat="45.30056" lon="5.89366">
        <ele>382.4460144043</ele>
        <time>2017-11-15T19:45:01Z</time>
      </trkpt>
      <trkpt lat="45.30061" lon="5.89366">
        <ele>380.4460144043</ele>
        <time>2017-11-15T19:45:06Z</time>
      </trkpt>
      <trkpt lat="45.30066" lon="5.89365">
        <ele>379.4460144043</ele>
        <time>2017-11-15T19:45:11Z</time>
      </trkpt>
      <trkpt lat="45.30072" lon="5.89362">
        <ele>380.4460144043</ele>
        <time>2017-11-15T19:45:17Z</time>
      </trkpt>
      <trkpt lat="45.30077" lon="5.89361">
        <ele>381.4460144043</ele>
        <time>2017-11-15T19:45:20Z</time>
      </trkpt>
      <trkpt lat="45.30083" lon="5.89363">
        <ele>382.4460144043</ele>
        <time>2017-11-15T19:45:24Z</time>
      </trkpt>
      <trkpt lat="45.30088" lon="5.89365">
        <ele>388.4460144043</ele>
        <time>2017-11-15T19:45:30Z</time>
      </trkpt>
      <trkpt lat="45.30093" lon="5.89368">
        <ele>389.4460144043</ele>
        <time>2017-11-15T19:45:35Z</time>
      </trkpt>
      <trkpt lat="45.30098" lon="5.89367">
        <ele>388.4460144043</ele>
        <time>2017-11-15T19:45:38Z</time>
      </trkpt>
      <trkpt lat="45.30103" lon="5.89365">
        <ele>388.4460144043</ele>
        <time>2017-11-15T19:45:42Z</time>
      </trkpt>
      <trkpt lat="45.30107" lon="5.89362">
        <ele>387.4460144043</ele>
        <time>2017-11-15T19:45:47Z</time>
      </trkpt>
      <trkpt lat="45.30112" lon="5.89363">
        <ele>393.4460144043</ele>
        <time>2017-11-15T19:45:52Z</time>
      </trkpt>
      <trkpt lat="45.30118" lon="5.89366">
        <ele>393.4460144043</ele>
        <time>2017-11-15T19:45:57Z</time>
      </trkpt>
      <trkpt lat="45.30123" lon="5.89368">
        <ele>398.4460144043</ele>
        <time>2017-11-15T19:46:01Z</time>
      </trkpt>
      <trkpt lat="45.30128" lon="5.89372">
        <ele>400.4460144043</ele>
        <time>2017-11-15T19:46:04Z</time>
      </trkpt>
      <trkpt lat="45.30132" lon="5.89368">
        <ele>397.4460144043</ele>
        <time>2017-11-15T19:46:07Z</time>
      </trkpt>
      <trkpt lat="45.30138" lon="5.89366">
        <ele>396.4460144043</ele>
        <time>2017-11-15T19:46:11Z</time>
      </trkpt>
      <trkpt lat="45.30142" lon="5.89368">
        <ele>398.4460144043</ele>
        <time>2017-11-15T19:46:14Z</time>
      </trkpt>
      <trkpt lat="45.30147" lon="5.89368">
        <ele>399.4460144043</ele>
        <time>2017-11-15T19:46:17Z</time>
      </trkpt>
      <trkpt lat="45.30151" lon="5.89366">
        <ele>402.4460144043</ele>
        <time>2017-11-15T19:46:22Z</time>
      </trkpt>
      <trkpt lat="45.30156" lon="5.89364">
        <ele>397.4460144043</ele>
        <time>2017-11-15T19:46:28Z</time>
      </trkpt>
      <trkpt lat="45.3016" lon="5.89368">
        <ele>402.4460144043</ele>
        <time>2017-11-15T19:46:32Z</time>
      </trkpt>
      <trkpt lat="45.30165" lon="5.89371">
        <ele>404.4460144043</ele>
        <time>2017-11-15T19:46:36Z</time>
      </trkpt>
      <trkpt lat="45.30171" lon="5.89373">
        <ele>407.4460144043</ele>
        <time>2017-11-15T19:46:40Z</time>
      </trkpt>
      <trkpt lat="45.30176" lon="5.89374">
        <ele>410.4460144043</ele>
        <time>2017-11-15T19:46:45Z</time>
      </trkpt>
      <trkpt lat="45.30181" lon="5.89373">
        <ele>410.4460144043</ele>
        <time>2017-11-15T19:46:49Z</time>
      </trkpt>
      <trkpt lat="45.30185" lon="5.89374">
        <ele>411.4460144043</ele>
        <time>2017-11-15T19:46:53Z</time>
      </trkpt>
      <trkpt lat="45.30191" lon="5.89374">
        <ele>413.4460144043</ele>
        <time>2017-11-15T19:46:58Z</time>
      </trkpt>
      <trkpt lat="45.30195" lon="5.89373">
        <ele>416.4460144043</ele>
        <time>2017-11-15T19:47:02Z</time>
      </trkpt>
      <trkpt lat="45.302" lon="5.89373">
        <ele>417.4460144043</ele>
        <time>2017-11-15T19:47:06Z</time>
      </trkpt>
      <trkpt lat="45.30205" lon="5.89374">
        <ele>419.4460144043</ele>
        <time>2017-11-15T19:47:19Z</time>
      </trkpt>
      <trkpt lat="45.30211" lon="5.89374">
        <ele>423.4460144043</ele>
        <time>2017-11-15T19:47:23Z</time>
      </trkpt>
      <trkpt lat="45.30216" lon="5.89377">
        <ele>428.4460144043</ele>
        <time>2017-11-15T19:47:25Z</time>
      </trkpt>
      <trkpt lat="45.30221" lon="5.89376">
        <ele>424.4460144043</ele>
        <time>2017-11-15T19:47:28Z</time>
      </trkpt>
      <trkpt lat="45.30226" lon="5.89376">
        <ele>426.4460144043</ele>
        <time>2017-11-15T19:47:32Z</time>
      </trkpt>
      <trkpt lat="45.3023" lon="5.89373">
        <ele>423.4460144043</ele>
        <time>2017-11-15T19:47:35Z</time>
      </trkpt>
      <trkpt lat="45.30235" lon="5.89371">
        <ele>424.4460144043</ele>
        <time>2017-11-15T19:47:40Z</time>
      </trkpt>
      <trkpt lat="45.3024" lon="5.89368">
        <ele>426.4460144043</ele>
        <time>2017-11-15T19:47:45Z</time>
      </trkpt>
      <trkpt lat="45.30246" lon="5.89366">
        <ele>429.4460144043</ele>
        <time>2017-11-15T19:47:51Z</time>
      </trkpt>
      <trkpt lat="45.3025" lon="5.89364">
        <ele>431.4460144043</ele>
        <time>2017-11-15T19:47:57Z</time>
      </trkpt>
      <trkpt lat="45.30254" lon="5.89361">
        <ele>432.4460144043</ele>
        <time>2017-11-15T19:48:02Z</time>
      </trkpt>
      <trkpt lat="45.30258" lon="5.89357">
        <ele>436.4460144043</ele>
        <time>2017-11-15T19:48:06Z</time>
      </trkpt>
      <trkpt lat="45.30263" lon="5.89353">
        <ele>439.4460144043</ele>
        <time>2017-11-15T19:48:11Z</time>
      </trkpt>
      <trkpt lat="45.30267" lon="5.89347">
        <ele>441.4460144043</ele>
        <time>2017-11-15T19:48:16Z</time>
      </trkpt>
      <trkpt lat="45.30271" lon="5.89344">
        <ele>439.4460144043</ele>
        <time>2017-11-15T19:48:21Z</time>
      </trkpt>
      <trkpt lat="45.30276" lon="5.89343">
        <ele>442.4460144043</ele>
        <time>2017-11-15T19:48:27Z</time>
      </trkpt>
      <trkpt lat="45.3028" lon="5.89339">
        <ele>441.4460144043</ele>
        <time>2017-11-15T19:48:31Z</time>
      </trkpt>
      <trkpt lat="45.30282" lon="5.89333">
        <ele>442.4460144043</ele>
        <time>2017-11-15T19:48:36Z</time>
      </trkpt>
      <trkpt lat="45.30282" lon="5.89326">
        <ele>441.4460144043</ele>
        <time>2017-11-15T19:48:41Z</time>
      </trkpt>
      <trkpt lat="45.30288" lon="5.89324">
        <ele>441.4460144043</ele>
        <time>2017-11-15T19:48:48Z</time>
      </trkpt>
      <trkpt lat="45.30292" lon="5.89319">
        <ele>442.4460144043</ele>
        <time>2017-11-15T19:48:53Z</time>
      </trkpt>
      <trkpt lat="45.30295" lon="5.89314">
        <ele>443.4460144043</ele>
        <time>2017-11-15T19:48:58Z</time>
      </trkpt>
      <trkpt lat="45.30299" lon="5.89309">
        <ele>445.4460144043</ele>
        <time>2017-11-15T19:49:03Z</time>
      </trkpt>
      <trkpt lat="45.303" lon="5.89302">
        <ele>447.4460144043</ele>
        <time>2017-11-15T19:49:10Z</time>
      </trkpt>
      <trkpt lat="45.30303" lon="5.89297">
        <ele>449.4460144043</ele>
        <time>2017-11-15T19:49:15Z</time>
      </trkpt>
      <trkpt lat="45.30309" lon="5.89293">
        <ele>453.4460144043</ele>
        <time>2017-11-15T19:49:21Z</time>
      </trkpt>
      <trkpt lat="45.30311" lon="5.89286">
        <ele>456.4460144043</ele>
        <time>2017-11-15T19:49:25Z</time>
      </trkpt>
      <trkpt lat="45.30314" lon="5.89281">
        <ele>454.4460144043</ele>
        <time>2017-11-15T19:49:28Z</time>
      </trkpt>
      <trkpt lat="45.30318" lon="5.89276">
        <ele>459.4460144043</ele>
        <time>2017-11-15T19:49:33Z</time>
      </trkpt>
      <trkpt lat="45.30318" lon="5.89268">
        <ele>458.4460144043</ele>
        <time>2017-11-15T19:49:36Z</time>
      </trkpt>
      <trkpt lat="45.3032" lon="5.89261">
        <ele>460.4460144043</ele>
        <time>2017-11-15T19:49:41Z</time>
      </trkpt>
      <trkpt lat="45.30322" lon="5.89254">
        <ele>462.4460144043</ele>
        <time>2017-11-15T19:49:45Z</time>
      </trkpt>
      <trkpt lat="45.30326" lon="5.89247">
        <ele>466.4460144043</ele>
        <time>2017-11-15T19:49:51Z</time>
      </trkpt>
      <trkpt lat="45.30329" lon="5.8924">
        <ele>468.4460144043</ele>
        <time>2017-11-15T19:49:56Z</time>
      </trkpt>
      <trkpt lat="45.30331" lon="5.89233">
        <ele>469.4460144043</ele>
        <time>2017-11-15T19:50:00Z</time>
      </trkpt>
      <trkpt lat="45.30335" lon="5.89229">
        <ele>473.4460144043</ele>
        <time>2017-11-15T19:50:05Z</time>
      </trkpt>
      <trkpt lat="45.30339" lon="5.89223">
        <ele>474.4460144043</ele>
        <time>2017-11-15T19:50:11Z</time>
      </trkpt>
      <trkpt lat="45.30345" lon="5.8922">
        <ele>481.4460144043</ele>
        <time>2017-11-15T19:50:18Z</time>
      </trkpt>
      <trkpt lat="45.30348" lon="5.89213">
        <ele>481.4460144043</ele>
        <time>2017-11-15T19:50:24Z</time>
      </trkpt>
      <trkpt lat="45.30353" lon="5.89211">
        <ele>486.4460144043</ele>
        <time>2017-11-15T19:50:31Z</time>
      </trkpt>
      <trkpt lat="45.30355" lon="5.89205">
        <ele>489.4460144043</ele>
        <time>2017-11-15T19:50:37Z</time>
      </trkpt>
      <trkpt lat="45.30355" lon="5.89198">
        <ele>491.4460144043</ele>
        <time>2017-11-15T19:50:41Z</time>
      </trkpt>
      <trkpt lat="45.3036" lon="5.89197">
        <ele>491.4460144043</ele>
        <time>2017-11-15T19:50:44Z</time>
      </trkpt>
      <trkpt lat="45.30364" lon="5.89193">
        <ele>492.4460144043</ele>
        <time>2017-11-15T19:50:48Z</time>
      </trkpt>
      <trkpt lat="45.30367" lon="5.89188">
        <ele>493.4460144043</ele>
        <time>2017-11-15T19:50:51Z</time>
      </trkpt>
      <trkpt lat="45.3037" lon="5.89183">
        <ele>497.4460144043</ele>
        <time>2017-11-15T19:50:56Z</time>
      </trkpt>
      <trkpt lat="45.30372" lon="5.89176">
        <ele>496.4460144043</ele>
        <time>2017-11-15T19:50:59Z</time>
      </trkpt>
      <trkpt lat="45.30374" lon="5.89169">
        <ele>496.4460144043</ele>
        <time>2017-11-15T19:51:03Z</time>
      </trkpt>
      <trkpt lat="45.30376" lon="5.89163">
        <ele>498.4460144043</ele>
        <time>2017-11-15T19:51:09Z</time>
      </trkpt>
      <trkpt lat="45.3038" lon="5.89158">
        <ele>495.4460144043</ele>
        <time>2017-11-15T19:51:14Z</time>
      </trkpt>
      <trkpt lat="45.30384" lon="5.89161">
        <ele>494.4460144043</ele>
        <time>2017-11-15T19:51:21Z</time>
      </trkpt>
      <trkpt lat="45.30389" lon="5.8916">
        <ele>493.4460144043</ele>
        <time>2017-11-15T19:51:28Z</time>
      </trkpt>
      <trkpt lat="45.30387" lon="5.89167">
        <ele>499.4460144043</ele>
        <time>2017-11-15T19:51:34Z</time>
      </trkpt>
      <trkpt lat="45.30392" lon="5.89164">
        <ele>501.4460144043</ele>
        <time>2017-11-15T19:51:40Z</time>
      </trkpt>
      <trkpt lat="45.30396" lon="5.89167">
        <ele>504.4460144043</ele>
        <time>2017-11-15T19:51:52Z</time>
      </trkpt>
      <trkpt lat="45.304" lon="5.89171">
        <ele>504.4460144043</ele>
        <time>2017-11-15T19:51:55Z</time>
      </trkpt>
      <trkpt lat="45.30405" lon="5.89173">
        <ele>501.4460144043</ele>
        <time>2017-11-15T19:51:57Z</time>
      </trkpt>
      <trkpt lat="45.30408" lon="5.89178">
        <ele>505.4460144043</ele>
        <time>2017-11-15T19:52:02Z</time>
      </trkpt>
      <trkpt lat="45.30413" lon="5.8918">
        <ele>505.4460144043</ele>
        <time>2017-11-15T19:52:04Z</time>
      </trkpt>
      <trkpt lat="45.30416" lon="5.89185">
        <ele>508.4460144043</ele>
        <time>2017-11-15T19:52:10Z</time>
      </trkpt>
      <trkpt lat="45.30421" lon="5.89189">
        <ele>509.4460144043</ele>
        <time>2017-11-15T19:52:16Z</time>
      </trkpt>
      <trkpt lat="45.30426" lon="5.89193">
        <ele>509.4460144043</ele>
        <time>2017-11-15T19:52:21Z</time>
      </trkpt>
      <trkpt lat="45.3043" lon="5.89198">
        <ele>513.44598388672</ele>
        <time>2017-11-15T19:52:26Z</time>
      </trkpt>
      <trkpt lat="45.30434" lon="5.892">
        <ele>513.44598388672</ele>
        <time>2017-11-15T19:52:30Z</time>
      </trkpt>
      <trkpt lat="45.30438" lon="5.89206">
        <ele>514.44598388672</ele>
        <time>2017-11-15T19:52:36Z</time>
      </trkpt>
      <trkpt lat="45.30441" lon="5.89211">
        <ele>518.44598388672</ele>
        <time>2017-11-15T19:52:38Z</time>
      </trkpt>
      <trkpt lat="45.30444" lon="5.89215">
        <ele>521.44598388672</ele>
        <time>2017-11-15T19:52:42Z</time>
      </trkpt>
      <trkpt lat="45.30448" lon="5.8922">
        <ele>521.44598388672</ele>
        <time>2017-11-15T19:52:45Z</time>
      </trkpt>
      <trkpt lat="45.30451" lon="5.89227">
        <ele>522.44598388672</ele>
        <time>2017-11-15T19:52:48Z</time>
      </trkpt>
      <trkpt lat="45.30453" lon="5.89233">
        <ele>527.44598388672</ele>
        <time>2017-11-15T19:52:52Z</time>
      </trkpt>
      <trkpt lat="45.30457" lon="5.89238">
        <ele>528.44598388672</ele>
        <time>2017-11-15T19:52:55Z</time>
      </trkpt>
      <trkpt lat="45.30462" lon="5.89242">
        <ele>525.44598388672</ele>
        <time>2017-11-15T19:52:58Z</time>
      </trkpt>
      <trkpt lat="45.30465" lon="5.89249">
        <ele>524.44598388672</ele>
        <time>2017-11-15T19:53:01Z</time>
      </trkpt>
      <trkpt lat="45.3047" lon="5.89251">
        <ele>526.44598388672</ele>
        <time>2017-11-15T19:53:05Z</time>
      </trkpt>
      <trkpt lat="45.30474" lon="5.89253">
        <ele>526.44598388672</ele>
        <time>2017-11-15T19:53:08Z</time>
      </trkpt>
      <trkpt lat="45.30479" lon="5.89255">
        <ele>528.44598388672</ele>
        <time>2017-11-15T19:53:17Z</time>
      </trkpt>
      <trkpt lat="45.30485" lon="5.89255">
        <ele>529.44598388672</ele>
        <time>2017-11-15T19:53:22Z</time>
      </trkpt>
      <trkpt lat="45.3049" lon="5.89256">
        <ele>530.44702148438</ele>
        <time>2017-11-15T19:53:28Z</time>
      </trkpt>
      <trkpt lat="45.30493" lon="5.89261">
        <ele>533.44702148438</ele>
        <time>2017-11-15T19:53:35Z</time>
      </trkpt>
      <trkpt lat="45.30498" lon="5.89262">
        <ele>537.44702148438</ele>
        <time>2017-11-15T19:53:40Z</time>
      </trkpt>
      <trkpt lat="45.30503" lon="5.8926">
        <ele>539.44702148438</ele>
        <time>2017-11-15T19:53:48Z</time>
      </trkpt>
      <trkpt lat="45.30508" lon="5.89263">
        <ele>540.44702148438</ele>
        <time>2017-11-15T19:53:51Z</time>
      </trkpt>
      <trkpt lat="45.30512" lon="5.89265">
        <ele>542.44702148438</ele>
        <time>2017-11-15T19:53:55Z</time>
      </trkpt>
      <trkpt lat="45.30516" lon="5.89269">
        <ele>543.44702148438</ele>
        <time>2017-11-15T19:53:58Z</time>
      </trkpt>
      <trkpt lat="45.30515" lon="5.89275">
        <ele>544.44702148438</ele>
        <time>2017-11-15T19:54:01Z</time>
      </trkpt>
      <trkpt lat="45.30519" lon="5.8928">
        <ele>542.44702148438</ele>
        <time>2017-11-15T19:54:05Z</time>
      </trkpt>
      <trkpt lat="45.30522" lon="5.89287">
        <ele>544.44702148438</ele>
        <time>2017-11-15T19:54:10Z</time>
      </trkpt>
      <trkpt lat="45.30525" lon="5.89292">
        <ele>544.44702148438</ele>
        <time>2017-11-15T19:54:14Z</time>
      </trkpt>
      <trkpt lat="45.30529" lon="5.89297">
        <ele>544.44702148438</ele>
        <time>2017-11-15T19:54:20Z</time>
      </trkpt>
      <trkpt lat="45.30533" lon="5.89316">
        <ele>553.44702148438</ele>
        <time>2017-11-15T19:54:37Z</time>
      </trkpt>
      <trkpt lat="45.30536" lon="5.89321">
        <ele>407.4469909668</ele>
        <time>2017-11-15T19:54:42Z</time>
      </trkpt>
      <trkpt lat="45.30536" lon="5.89328">
        <ele>542.44702148438</ele>
        <time>2017-11-15T19:54:48Z</time>
      </trkpt>
      <trkpt lat="45.30535" lon="5.89334">
        <ele>559.44702148438</ele>
        <time>2017-11-15T19:54:53Z</time>
      </trkpt>
      <trkpt lat="45.30539" lon="5.89338">
        <ele>558.44702148438</ele>
        <time>2017-11-15T19:54:57Z</time>
      </trkpt>
      <trkpt lat="45.30543" lon="5.89342">
        <ele>556.44702148438</ele>
        <time>2017-11-15T19:55:03Z</time>
      </trkpt>
      <trkpt lat="45.30548" lon="5.89343">
        <ele>559.44702148438</ele>
        <time>2017-11-15T19:55:09Z</time>
      </trkpt>
      <trkpt lat="45.30554" lon="5.89348">
        <ele>561.44702148438</ele>
        <time>2017-11-15T19:55:14Z</time>
      </trkpt>
      <trkpt lat="45.30559" lon="5.8935">
        <ele>561.44702148438</ele>
        <time>2017-11-15T19:55:18Z</time>
      </trkpt>
      <trkpt lat="45.30559" lon="5.89357">
        <ele>565.44702148438</ele>
        <time>2017-11-15T19:55:25Z</time>
      </trkpt>
      <trkpt lat="45.30561" lon="5.89364">
        <ele>569.44702148438</ele>
        <time>2017-11-15T19:55:30Z</time>
      </trkpt>
      <trkpt lat="45.30566" lon="5.89368">
        <ele>566.44702148438</ele>
        <time>2017-11-15T19:55:34Z</time>
      </trkpt>
      <trkpt lat="45.30564" lon="5.89374">
        <ele>572.44702148438</ele>
        <time>2017-11-15T19:55:40Z</time>
      </trkpt>
      <trkpt lat="45.30563" lon="5.89382">
        <ele>574.44702148438</ele>
        <time>2017-11-15T19:55:45Z</time>
      </trkpt>
      <trkpt lat="45.30565" lon="5.89389">
        <ele>575.44702148438</ele>
        <time>2017-11-15T19:55:52Z</time>
      </trkpt>
      <trkpt lat="45.30569" lon="5.89392">
        <ele>574.44702148438</ele>
        <time>2017-11-15T19:55:56Z</time>
      </trkpt>
      <trkpt lat="45.30575" lon="5.89395">
        <ele>574.44702148438</ele>
        <time>2017-11-15T19:56:01Z</time>
      </trkpt>
      <trkpt lat="45.30578" lon="5.89399">
        <ele>575.44702148438</ele>
        <time>2017-11-15T19:56:04Z</time>
      </trkpt>
      <trkpt lat="45.30582" lon="5.89404">
        <ele>338.4469909668</ele>
        <time>2017-11-15T19:56:12Z</time>
      </trkpt>
      <trkpt lat="45.30586" lon="5.89411">
        <ele>512.44702148438</ele>
        <time>2017-11-15T19:56:19Z</time>
      </trkpt>
      <trkpt lat="45.30587" lon="5.89417">
        <ele>560.44702148438</ele>
        <time>2017-11-15T19:56:25Z</time>
      </trkpt>
      <trkpt lat="45.30583" lon="5.89422">
        <ele>575.44702148438</ele>
        <time>2017-11-15T19:56:29Z</time>
      </trkpt>
      <trkpt lat="45.30582" lon="5.89428">
        <ele>577.44702148438</ele>
        <time>2017-11-15T19:56:33Z</time>
      </trkpt>
      <trkpt lat="45.30581" lon="5.89434">
        <ele>592.44702148438</ele>
        <time>2017-11-15T19:56:40Z</time>
      </trkpt>
      <trkpt lat="45.30584" lon="5.8944">
        <ele>596.44702148438</ele>
        <time>2017-11-15T19:56:47Z</time>
      </trkpt>
      <trkpt lat="45.3059" lon="5.89439">
        <ele>597.44702148438</ele>
        <time>2017-11-15T19:56:52Z</time>
      </trkpt>
      <trkpt lat="45.30591" lon="5.89433">
        <ele>599.44702148438</ele>
        <time>2017-11-15T19:57:02Z</time>
      </trkpt>
      <trkpt lat="45.30597" lon="5.89431">
        <ele>599.44702148438</ele>
        <time>2017-11-15T19:57:09Z</time>
      </trkpt>
      <trkpt lat="45.30602" lon="5.8943">
        <ele>602.44702148438</ele>
        <time>2017-11-15T19:57:17Z</time>
      </trkpt>
      <trkpt lat="45.30602" lon="5.89424">
        <ele>608.44702148438</ele>
        <time>2017-11-15T19:57:23Z</time>
      </trkpt>
      <trkpt lat="45.30607" lon="5.89423">
        <ele>611.44702148438</ele>
        <time>2017-11-15T19:57:29Z</time>
      </trkpt>
      <trkpt lat="45.30607" lon="5.89415">
        <ele>611.44702148438</ele>
        <time>2017-11-15T19:57:33Z</time>
      </trkpt>
      <trkpt lat="45.30606" lon="5.89408">
        <ele>612.44702148438</ele>
        <time>2017-11-15T19:57:39Z</time>
      </trkpt>
      <trkpt lat="45.30604" lon="5.89402">
        <ele>611.44702148438</ele>
        <time>2017-11-15T19:57:42Z</time>
      </trkpt>
      <trkpt lat="45.30603" lon="5.89395">
        <ele>613.44702148438</ele>
        <time>2017-11-15T19:57:47Z</time>
      </trkpt>
      <trkpt lat="45.30607" lon="5.89388">
        <ele>613.44702148438</ele>
        <time>2017-11-15T19:57:51Z</time>
      </trkpt>
      <trkpt lat="45.30604" lon="5.89383">
        <ele>617.44702148438</ele>
        <time>2017-11-15T19:57:56Z</time>
      </trkpt>
      <trkpt lat="45.30607" lon="5.89378">
        <ele>615.44702148438</ele>
        <time>2017-11-15T19:57:59Z</time>
      </trkpt>
      <trkpt lat="45.3061" lon="5.89371">
        <ele>617.44702148438</ele>
        <time>2017-11-15T19:58:05Z</time>
      </trkpt>
      <trkpt lat="45.30611" lon="5.89364">
        <ele>618.44702148438</ele>
        <time>2017-11-15T19:58:09Z</time>
      </trkpt>
      <trkpt lat="45.30611" lon="5.89357">
        <ele>618.44702148438</ele>
        <time>2017-11-15T19:58:13Z</time>
      </trkpt>
      <trkpt lat="45.30614" lon="5.89362">
        <ele>633.44702148438</ele>
        <time>2017-11-15T19:58:36Z</time>
      </trkpt>
      <trkpt lat="45.30617" lon="5.89357">
        <ele>632.44702148438</ele>
        <time>2017-11-15T19:58:42Z</time>
      </trkpt>
      <trkpt lat="45.3062" lon="5.89352">
        <ele>635.44702148438</ele>
        <time>2017-11-15T19:58:48Z</time>
      </trkpt>
      <trkpt lat="45.30622" lon="5.89345">
        <ele>640.44702148438</ele>
        <time>2017-11-15T19:58:54Z</time>
      </trkpt>
      <trkpt lat="45.30622" lon="5.89337">
        <ele>643.44702148438</ele>
        <time>2017-11-15T19:59:00Z</time>
      </trkpt>
      <trkpt lat="45.30623" lon="5.89331">
        <ele>644.44702148438</ele>
        <time>2017-11-15T19:59:04Z</time>
      </trkpt>
      <trkpt lat="45.30628" lon="5.89334">
        <ele>651.44702148438</ele>
        <time>2017-11-15T19:59:18Z</time>
      </trkpt>
      <trkpt lat="45.30631" lon="5.89339">
        <ele>654.44702148438</ele>
        <time>2017-11-15T19:59:26Z</time>
      </trkpt>
      <trkpt lat="45.30637" lon="5.89343">
        <ele>656.44702148438</ele>
        <time>2017-11-15T19:59:30Z</time>
      </trkpt>
      <trkpt lat="45.30641" lon="5.89346">
        <ele>654.44702148438</ele>
        <time>2017-11-15T19:59:34Z</time>
      </trkpt>
      <trkpt lat="45.30644" lon="5.8935">
        <ele>654.44702148438</ele>
        <time>2017-11-15T19:59:38Z</time>
      </trkpt>
      <trkpt lat="45.30651" lon="5.89356">
        <ele>652.44702148438</ele>
        <time>2017-11-15T19:59:43Z</time>
      </trkpt>
      <trkpt lat="45.30654" lon="5.89351">
        <ele>654.44702148438</ele>
        <time>2017-11-15T19:59:54Z</time>
      </trkpt>
      <trkpt lat="45.30656" lon="5.89346">
        <ele>656.44702148438</ele>
        <time>2017-11-15T19:59:59Z</time>
      </trkpt>
      <trkpt lat="45.30659" lon="5.89352">
        <ele>662.44702148438</ele>
        <time>2017-11-15T20:00:09Z</time>
      </trkpt>
      <trkpt lat="45.30664" lon="5.89354">
        <ele>662.44702148438</ele>
        <time>2017-11-15T20:00:15Z</time>
      </trkpt>
      <trkpt lat="45.3067" lon="5.89356">
        <ele>660.44702148438</ele>
        <time>2017-11-15T20:00:18Z</time>
      </trkpt>
      <trkpt lat="45.30672" lon="5.89349">
        <ele>658.44702148438</ele>
        <time>2017-11-15T20:00:23Z</time>
      </trkpt>
      <trkpt lat="45.30672" lon="5.89342">
        <ele>660.44702148438</ele>
        <time>2017-11-15T20:00:29Z</time>
      </trkpt>
      <trkpt lat="45.30669" lon="5.89336">
        <ele>659.44702148438</ele>
        <time>2017-11-15T20:00:33Z</time>
      </trkpt>
      <trkpt lat="45.30673" lon="5.89333">
        <ele>662.44702148438</ele>
        <time>2017-11-15T20:00:36Z</time>
      </trkpt>
      <trkpt lat="45.30679" lon="5.89335">
        <ele>664.44702148438</ele>
        <time>2017-11-15T20:00:39Z</time>
      </trkpt>
      <trkpt lat="45.30681" lon="5.89341">
        <ele>668.44702148438</ele>
        <time>2017-11-15T20:00:47Z</time>
      </trkpt>
      <trkpt lat="45.30681" lon="5.89348">
        <ele>673.44702148438</ele>
        <time>2017-11-15T20:00:58Z</time>
      </trkpt>
      <trkpt lat="45.30688" lon="5.89351">
        <ele>674.44702148438</ele>
        <time>2017-11-15T20:01:02Z</time>
      </trkpt>
      <trkpt lat="45.30692" lon="5.89353">
        <ele>673.44702148438</ele>
        <time>2017-11-15T20:01:05Z</time>
      </trkpt>
      <trkpt lat="45.30697" lon="5.89355">
        <ele>674.44702148438</ele>
        <time>2017-11-15T20:01:09Z</time>
      </trkpt>
      <trkpt lat="45.30701" lon="5.89359">
        <ele>675.44702148438</ele>
        <time>2017-11-15T20:01:13Z</time>
      </trkpt>
      <trkpt lat="45.30704" lon="5.89355">
        <ele>677.44702148438</ele>
        <time>2017-11-15T20:01:19Z</time>
      </trkpt>
      <trkpt lat="45.30701" lon="5.8935">
        <ele>678.44702148438</ele>
        <time>2017-11-15T20:01:23Z</time>
      </trkpt>
      <trkpt lat="45.307" lon="5.89344">
        <ele>680.44702148438</ele>
        <time>2017-11-15T20:01:29Z</time>
      </trkpt>
      <trkpt lat="45.30701" lon="5.89337">
        <ele>680.44702148438</ele>
        <time>2017-11-15T20:01:34Z</time>
      </trkpt>
      <trkpt lat="45.30704" lon="5.89333">
        <ele>681.44702148438</ele>
        <time>2017-11-15T20:01:37Z</time>
      </trkpt>
      <trkpt lat="45.30703" lon="5.89325">
        <ele>680.44702148438</ele>
        <time>2017-11-15T20:01:44Z</time>
      </trkpt>
      <trkpt lat="45.30704" lon="5.89319">
        <ele>683.44702148438</ele>
        <time>2017-11-15T20:01:48Z</time>
      </trkpt>
      <trkpt lat="45.30705" lon="5.89311">
        <ele>687.44702148438</ele>
        <time>2017-11-15T20:01:53Z</time>
      </trkpt>
      <trkpt lat="45.30704" lon="5.89305">
        <ele>686.44702148438</ele>
        <time>2017-11-15T20:01:57Z</time>
      </trkpt>
      <trkpt lat="45.30703" lon="5.89297">
        <ele>688.44702148438</ele>
        <time>2017-11-15T20:02:01Z</time>
      </trkpt>
      <trkpt lat="45.30704" lon="5.89291">
        <ele>690.44702148438</ele>
        <time>2017-11-15T20:02:05Z</time>
      </trkpt>
      <trkpt lat="45.30705" lon="5.89285">
        <ele>693.44702148438</ele>
        <time>2017-11-15T20:02:09Z</time>
      </trkpt>
      <trkpt lat="45.30708" lon="5.89278">
        <ele>693.44702148438</ele>
        <time>2017-11-15T20:02:12Z</time>
      </trkpt>
      <trkpt lat="45.30708" lon="5.89271">
        <ele>693.44702148438</ele>
        <time>2017-11-15T20:02:16Z</time>
      </trkpt>
      <trkpt lat="45.30708" lon="5.89265">
        <ele>700.44702148438</ele>
        <time>2017-11-15T20:02:22Z</time>
      </trkpt>
      <trkpt lat="45.30706" lon="5.89258">
        <ele>701.44702148438</ele>
        <time>2017-11-15T20:02:26Z</time>
      </trkpt>
      <trkpt lat="45.30703" lon="5.89252">
        <ele>701.44702148438</ele>
        <time>2017-11-15T20:02:29Z</time>
      </trkpt>
      <trkpt lat="45.30702" lon="5.89244">
        <ele>701.44702148438</ele>
        <time>2017-11-15T20:02:33Z</time>
      </trkpt>
      <trkpt lat="45.30702" lon="5.89236">
        <ele>704.44702148438</ele>
        <time>2017-11-15T20:02:37Z</time>
      </trkpt>
      <trkpt lat="45.30704" lon="5.89229">
        <ele>706.44702148438</ele>
        <time>2017-11-15T20:02:42Z</time>
      </trkpt>
      <trkpt lat="45.30705" lon="5.89221">
        <ele>710.44702148438</ele>
        <time>2017-11-15T20:02:48Z</time>
      </trkpt>
      <trkpt lat="45.30707" lon="5.89214">
        <ele>709.44702148438</ele>
        <time>2017-11-15T20:02:51Z</time>
      </trkpt>
      <trkpt lat="45.30708" lon="5.89206">
        <ele>711.44702148438</ele>
        <time>2017-11-15T20:02:55Z</time>
      </trkpt>
      <trkpt lat="45.30707" lon="5.89199">
        <ele>715.44702148438</ele>
        <time>2017-11-15T20:03:00Z</time>
      </trkpt>
      <trkpt lat="45.30707" lon="5.89192">
        <ele>716.44702148438</ele>
        <time>2017-11-15T20:03:04Z</time>
      </trkpt>
      <trkpt lat="45.30707" lon="5.89184">
        <ele>719.44702148438</ele>
        <time>2017-11-15T20:03:09Z</time>
      </trkpt>
      <trkpt lat="45.3071" lon="5.89178">
        <ele>720.44702148438</ele>
        <time>2017-11-15T20:03:13Z</time>
      </trkpt>
      <trkpt lat="45.30708" lon="5.89171">
        <ele>720.44702148438</ele>
        <time>2017-11-15T20:03:18Z</time>
      </trkpt>
      <trkpt lat="45.30703" lon="5.89167">
        <ele>724.44702148438</ele>
        <time>2017-11-15T20:03:23Z</time>
      </trkpt>
      <trkpt lat="45.30703" lon="5.89158">
        <ele>685.44702148438</ele>
        <time>2017-11-15T20:03:29Z</time>
      </trkpt>
      <trkpt lat="45.30703" lon="5.89151">
        <ele>711.44702148438</ele>
        <time>2017-11-15T20:03:33Z</time>
      </trkpt>
      <trkpt lat="45.30704" lon="5.89144">
        <ele>717.44702148438</ele>
        <time>2017-11-15T20:03:38Z</time>
      </trkpt>
      <trkpt lat="45.307" lon="5.89138">
        <ele>722.44702148438</ele>
        <time>2017-11-15T20:03:40Z</time>
      </trkpt>
      <trkpt lat="45.30695" lon="5.89134">
        <ele>725.44702148438</ele>
        <time>2017-11-15T20:03:43Z</time>
      </trkpt>
      <trkpt lat="45.30697" lon="5.89126">
        <ele>729.44702148438</ele>
        <time>2017-11-15T20:03:47Z</time>
      </trkpt>
      <trkpt lat="45.30693" lon="5.89123">
        <ele>729.44702148438</ele>
        <time>2017-11-15T20:03:49Z</time>
      </trkpt>
      <trkpt lat="45.30693" lon="5.89116">
        <ele>734.44702148438</ele>
        <time>2017-11-15T20:03:55Z</time>
      </trkpt>
      <trkpt lat="45.30692" lon="5.8911">
        <ele>736.44702148438</ele>
        <time>2017-11-15T20:04:00Z</time>
      </trkpt>
      <trkpt lat="45.3069" lon="5.89103">
        <ele>740.44702148438</ele>
        <time>2017-11-15T20:04:05Z</time>
      </trkpt>
      <trkpt lat="45.3069" lon="5.89097">
        <ele>739.44702148438</ele>
        <time>2017-11-15T20:04:10Z</time>
      </trkpt>
      <trkpt lat="45.30687" lon="5.89091">
        <ele>741.44702148438</ele>
        <time>2017-11-15T20:04:15Z</time>
      </trkpt>
      <trkpt lat="45.30692" lon="5.89091">
        <ele>744.44702148438</ele>
        <time>2017-11-15T20:04:26Z</time>
      </trkpt>
      <trkpt lat="45.30697" lon="5.89093">
        <ele>745.44702148438</ele>
        <time>2017-11-15T20:04:32Z</time>
      </trkpt>
      <trkpt lat="45.30702" lon="5.89095">
        <ele>748.44702148438</ele>
        <time>2017-11-15T20:04:39Z</time>
      </trkpt>
      <trkpt lat="45.30708" lon="5.89098">
        <ele>753.44702148438</ele>
        <time>2017-11-15T20:04:46Z</time>
      </trkpt>
      <trkpt lat="45.30713" lon="5.89101">
        <ele>755.44702148438</ele>
        <time>2017-11-15T20:04:51Z</time>
      </trkpt>
      <trkpt lat="45.30717" lon="5.89105">
        <ele>760.44702148438</ele>
        <time>2017-11-15T20:04:56Z</time>
      </trkpt>
      <trkpt lat="45.30721" lon="5.89107">
        <ele>759.44702148438</ele>
        <time>2017-11-15T20:05:00Z</time>
      </trkpt>
      <trkpt lat="45.30724" lon="5.89113">
        <ele>760.44702148438</ele>
        <time>2017-11-15T20:05:05Z</time>
      </trkpt>
      <trkpt lat="45.30729" lon="5.89115">
        <ele>763.44702148438</ele>
        <time>2017-11-15T20:05:09Z</time>
      </trkpt>
      <trkpt lat="45.30732" lon="5.89121">
        <ele>767.44702148438</ele>
        <time>2017-11-15T20:05:14Z</time>
      </trkpt>
      <trkpt lat="45.30736" lon="5.89124">
        <ele>768.44702148438</ele>
        <time>2017-11-15T20:05:19Z</time>
      </trkpt>
      <trkpt lat="45.30739" lon="5.89129">
        <ele>771.44702148438</ele>
        <time>2017-11-15T20:05:24Z</time>
      </trkpt>
      <trkpt lat="45.30742" lon="5.89134">
        <ele>773.44702148438</ele>
        <time>2017-11-15T20:05:29Z</time>
      </trkpt>
      <trkpt lat="45.30744" lon="5.89141">
        <ele>776.44702148438</ele>
        <time>2017-11-15T20:05:35Z</time>
      </trkpt>
      <trkpt lat="45.30747" lon="5.89146">
        <ele>777.44702148438</ele>
        <time>2017-11-15T20:05:39Z</time>
      </trkpt>
      <trkpt lat="45.30752" lon="5.89149">
        <ele>777.44702148438</ele>
        <time>2017-11-15T20:05:43Z</time>
      </trkpt>
      <trkpt lat="45.30756" lon="5.89155">
        <ele>779.44702148438</ele>
        <time>2017-11-15T20:05:47Z</time>
      </trkpt>
      <trkpt lat="45.3076" lon="5.8916">
        <ele>779.44702148438</ele>
        <time>2017-11-15T20:05:51Z</time>
      </trkpt>
      <trkpt lat="45.30764" lon="5.89163">
        <ele>780.44702148438</ele>
        <time>2017-11-15T20:05:55Z</time>
      </trkpt>
      <trkpt lat="45.30766" lon="5.89169">
        <ele>781.44702148438</ele>
        <time>2017-11-15T20:05:59Z</time>
      </trkpt>
      <trkpt lat="45.3077" lon="5.89173">
        <ele>783.44702148438</ele>
        <time>2017-11-15T20:06:03Z</time>
      </trkpt>
      <trkpt lat="45.30774" lon="5.89179">
        <ele>783.44702148438</ele>
        <time>2017-11-15T20:06:09Z</time>
      </trkpt>
      <trkpt lat="45.30779" lon="5.89183">
        <ele>780.44702148438</ele>
        <time>2017-11-15T20:06:13Z</time>
      </trkpt>
      <trkpt lat="45.30783" lon="5.89179">
        <ele>777.44702148438</ele>
        <time>2017-11-15T20:06:16Z</time>
      </trkpt>
      <trkpt lat="45.30787" lon="5.89176">
        <ele>778.44702148438</ele>
        <time>2017-11-15T20:06:20Z</time>
      </trkpt>
      <trkpt lat="45.30788" lon="5.89169">
        <ele>784.44702148438</ele>
        <time>2017-11-15T20:06:30Z</time>
      </trkpt>
      <trkpt lat="45.30787" lon="5.89162">
        <ele>785.44702148438</ele>
        <time>2017-11-15T20:06:34Z</time>
      </trkpt>
      <trkpt lat="45.30786" lon="5.89155">
        <ele>787.44702148438</ele>
        <time>2017-11-15T20:06:39Z</time>
      </trkpt>
      <trkpt lat="45.30787" lon="5.89148">
        <ele>787.44702148438</ele>
        <time>2017-11-15T20:06:43Z</time>
      </trkpt>
      <trkpt lat="45.30786" lon="5.8914">
        <ele>787.44702148438</ele>
        <time>2017-11-15T20:06:48Z</time>
      </trkpt>
      <trkpt lat="45.30785" lon="5.89132">
        <ele>789.44702148438</ele>
        <time>2017-11-15T20:06:52Z</time>
      </trkpt>
      <trkpt lat="45.30787" lon="5.89125">
        <ele>790.44702148438</ele>
        <time>2017-11-15T20:06:55Z</time>
      </trkpt>
      <trkpt lat="45.30784" lon="5.89118">
        <ele>790.44702148438</ele>
        <time>2017-11-15T20:06:59Z</time>
      </trkpt>
      <trkpt lat="45.30781" lon="5.89113">
        <ele>792.44702148438</ele>
        <time>2017-11-15T20:07:02Z</time>
      </trkpt>
      <trkpt lat="45.30779" lon="5.89106">
        <ele>793.44702148438</ele>
        <time>2017-11-15T20:07:06Z</time>
      </trkpt>
      <trkpt lat="45.30777" lon="5.891">
        <ele>794.44702148438</ele>
        <time>2017-11-15T20:07:09Z</time>
      </trkpt>
      <trkpt lat="45.30775" lon="5.89093">
        <ele>794.44702148438</ele>
        <time>2017-11-15T20:07:13Z</time>
      </trkpt>
      <trkpt lat="45.30774" lon="5.89085">
        <ele>794.44702148438</ele>
        <time>2017-11-15T20:07:19Z</time>
      </trkpt>
      <trkpt lat="45.30771" lon="5.89079">
        <ele>795.44702148438</ele>
        <time>2017-11-15T20:07:24Z</time>
      </trkpt>
      <trkpt lat="45.30771" lon="5.89072">
        <ele>794.44702148438</ele>
        <time>2017-11-15T20:07:29Z</time>
      </trkpt>
      <trkpt lat="45.30771" lon="5.89065">
        <ele>795.44702148438</ele>
        <time>2017-11-15T20:07:35Z</time>
      </trkpt>
      <trkpt lat="45.30768" lon="5.89061">
        <ele>794.44702148438</ele>
        <time>2017-11-15T20:07:37Z</time>
      </trkpt>
      <trkpt lat="45.30768" lon="5.89053">
        <ele>795.44702148438</ele>
        <time>2017-11-15T20:07:41Z</time>
      </trkpt>
      <trkpt lat="45.30768" lon="5.89046">
        <ele>793.44702148438</ele>
        <time>2017-11-15T20:07:47Z</time>
      </trkpt>
      <trkpt lat="45.3077" lon="5.89037">
        <ele>792.44702148438</ele>
        <time>2017-11-15T20:07:53Z</time>
      </trkpt>
      <trkpt lat="45.30766" lon="5.89032">
        <ele>790.44702148438</ele>
        <time>2017-11-15T20:07:57Z</time>
      </trkpt>
      <trkpt lat="45.30762" lon="5.89028">
        <ele>792.44702148438</ele>
        <time>2017-11-15T20:08:00Z</time>
      </trkpt>
      <trkpt lat="45.30761" lon="5.89022">
        <ele>795.44702148438</ele>
        <time>2017-11-15T20:08:08Z</time>
      </trkpt>
      <trkpt lat="45.30758" lon="5.89016">
        <ele>794.44702148438</ele>
        <time>2017-11-15T20:08:10Z</time>
      </trkpt>
      <trkpt lat="45.30754" lon="5.89011">
        <ele>795.44702148438</ele>
        <time>2017-11-15T20:08:13Z</time>
      </trkpt>
      <trkpt lat="45.30753" lon="5.89004">
        <ele>794.44702148438</ele>
        <time>2017-11-15T20:08:17Z</time>
      </trkpt>
      <trkpt lat="45.30751" lon="5.88998">
        <ele>796.44702148438</ele>
        <time>2017-11-15T20:08:21Z</time>
      </trkpt>
      <trkpt lat="45.30749" lon="5.88992">
        <ele>797.44702148438</ele>
        <time>2017-11-15T20:08:25Z</time>
      </trkpt>
      <trkpt lat="45.30747" lon="5.88986">
        <ele>796.44702148438</ele>
        <time>2017-11-15T20:08:28Z</time>
      </trkpt>
      <trkpt lat="45.30745" lon="5.8898">
        <ele>796.44702148438</ele>
        <time>2017-11-15T20:08:31Z</time>
      </trkpt>
      <trkpt lat="45.3074" lon="5.88975">
        <ele>797.44702148438</ele>
        <time>2017-11-15T20:08:37Z</time>
      </trkpt>
      <trkpt lat="45.30736" lon="5.8897">
        <ele>796.44702148438</ele>
        <time>2017-11-15T20:08:40Z</time>
      </trkpt>
      <trkpt lat="45.30732" lon="5.88965">
        <ele>797.44702148438</ele>
        <time>2017-11-15T20:08:43Z</time>
      </trkpt>
      <trkpt lat="45.30729" lon="5.8896">
        <ele>799.44702148438</ele>
        <time>2017-11-15T20:08:46Z</time>
      </trkpt>
      <trkpt lat="45.30725" lon="5.88955">
        <ele>803.44702148438</ele>
        <time>2017-11-15T20:08:51Z</time>
      </trkpt>
      <trkpt lat="45.30724" lon="5.88948">
        <ele>804.44702148438</ele>
        <time>2017-11-15T20:08:56Z</time>
      </trkpt>
      <trkpt lat="45.30724" lon="5.88941">
        <ele>810.44702148438</ele>
        <time>2017-11-15T20:09:08Z</time>
      </trkpt>
      <trkpt lat="45.30727" lon="5.88937">
        <ele>814.44702148438</ele>
        <time>2017-11-15T20:09:19Z</time>
      </trkpt>
      <trkpt lat="45.30731" lon="5.88931">
        <ele>768.44702148438</ele>
        <time>2017-11-15T20:09:31Z</time>
      </trkpt>
      <trkpt lat="45.30734" lon="5.88926">
        <ele>801.44702148438</ele>
        <time>2017-11-15T20:09:38Z</time>
      </trkpt>
      <trkpt lat="45.30733" lon="5.8892">
        <ele>819.44702148438</ele>
        <time>2017-11-15T20:09:46Z</time>
      </trkpt>
      <trkpt lat="45.30731" lon="5.88926">
        <ele>840.44702148438</ele>
        <time>2017-11-15T20:10:15Z</time>
      </trkpt>
      <trkpt lat="45.30732" lon="5.88934">
        <ele>843.44702148438</ele>
        <time>2017-11-15T20:10:19Z</time>
      </trkpt>
      <trkpt lat="45.30735" lon="5.8894">
        <ele>842.44702148438</ele>
        <time>2017-11-15T20:10:22Z</time>
      </trkpt>
      <trkpt lat="45.30738" lon="5.88947">
        <ele>841.44702148438</ele>
        <time>2017-11-15T20:10:26Z</time>
      </trkpt>
      <trkpt lat="45.30741" lon="5.88952">
        <ele>843.44702148438</ele>
        <time>2017-11-15T20:10:30Z</time>
      </trkpt>
      <trkpt lat="45.30744" lon="5.88957">
        <ele>844.44702148438</ele>
        <time>2017-11-15T20:10:34Z</time>
      </trkpt>
      <trkpt lat="45.30748" lon="5.88963">
        <ele>844.44702148438</ele>
        <time>2017-11-15T20:10:38Z</time>
      </trkpt>
      <trkpt lat="45.30753" lon="5.88967">
        <ele>845.44702148438</ele>
        <time>2017-11-15T20:10:42Z</time>
      </trkpt>
      <trkpt lat="45.30758" lon="5.88973">
        <ele>848.44702148438</ele>
        <time>2017-11-15T20:10:46Z</time>
      </trkpt>
      <trkpt lat="45.30762" lon="5.88978">
        <ele>847.44702148438</ele>
        <time>2017-11-15T20:10:51Z</time>
      </trkpt>
      <trkpt lat="45.30764" lon="5.88986">
        <ele>843.44702148438</ele>
        <time>2017-11-15T20:10:56Z</time>
      </trkpt>
      <trkpt lat="45.30767" lon="5.88989">
        <ele>843.44702148438</ele>
        <time>2017-11-15T20:11:00Z</time>
      </trkpt>
      <trkpt lat="45.30769" lon="5.88995">
        <ele>846.44702148438</ele>
        <time>2017-11-15T20:11:02Z</time>
      </trkpt>
      <trkpt lat="45.30773" lon="5.89">
        <ele>847.44702148438</ele>
        <time>2017-11-15T20:11:06Z</time>
      </trkpt>
      <trkpt lat="45.30777" lon="5.89005">
        <ele>846.44702148438</ele>
        <time>2017-11-15T20:11:09Z</time>
      </trkpt>
      <trkpt lat="45.30781" lon="5.89009">
        <ele>845.44702148438</ele>
        <time>2017-11-15T20:11:13Z</time>
      </trkpt>
      <trkpt lat="45.30787" lon="5.89013">
        <ele>842.44702148438</ele>
        <time>2017-11-15T20:11:17Z</time>
      </trkpt>
      <trkpt lat="45.3079" lon="5.89018">
        <ele>842.44702148438</ele>
        <time>2017-11-15T20:11:21Z</time>
      </trkpt>
      <trkpt lat="45.30792" lon="5.89025">
        <ele>843.44702148438</ele>
        <time>2017-11-15T20:11:25Z</time>
      </trkpt>
      <trkpt lat="45.30795" lon="5.89033">
        <ele>844.44702148438</ele>
        <time>2017-11-15T20:11:29Z</time>
      </trkpt>
      <trkpt lat="45.30796" lon="5.8904">
        <ele>848.44702148438</ele>
        <time>2017-11-15T20:11:33Z</time>
      </trkpt>
      <trkpt lat="45.30797" lon="5.89046">
        <ele>850.44702148438</ele>
        <time>2017-11-15T20:11:37Z</time>
      </trkpt>
      <trkpt lat="45.30796" lon="5.89053">
        <ele>855.44702148438</ele>
        <time>2017-11-15T20:11:40Z</time>
      </trkpt>
      <trkpt lat="45.30798" lon="5.89059">
        <ele>859.44702148438</ele>
        <time>2017-11-15T20:11:45Z</time>
      </trkpt>
      <trkpt lat="45.308" lon="5.89066">
        <ele>866.44702148438</ele>
        <time>2017-11-15T20:11:51Z</time>
      </trkpt>
      <trkpt lat="45.30802" lon="5.89073">
        <ele>866.44702148438</ele>
        <time>2017-11-15T20:11:56Z</time>
      </trkpt>
      <trkpt lat="45.30806" lon="5.89077">
        <ele>868.44702148438</ele>
        <time>2017-11-15T20:12:00Z</time>
      </trkpt>
      <trkpt lat="45.30809" lon="5.89083">
        <ele>870.44702148438</ele>
        <time>2017-11-15T20:12:05Z</time>
      </trkpt>
      <trkpt lat="45.30812" lon="5.89088">
        <ele>872.44702148438</ele>
        <time>2017-11-15T20:12:09Z</time>
      </trkpt>
      <trkpt lat="45.30817" lon="5.89091">
        <ele>870.44702148438</ele>
        <time>2017-11-15T20:12:13Z</time>
      </trkpt>
      <trkpt lat="45.3082" lon="5.89098">
        <ele>870.44702148438</ele>
        <time>2017-11-15T20:12:17Z</time>
      </trkpt>
      <trkpt lat="45.30823" lon="5.89102">
        <ele>868.44702148438</ele>
        <time>2017-11-15T20:12:20Z</time>
      </trkpt>
      <trkpt lat="45.30827" lon="5.89108">
        <ele>866.44702148438</ele>
        <time>2017-11-15T20:12:26Z</time>
      </trkpt>
      <trkpt lat="45.30832" lon="5.89115">
        <ele>865.44702148438</ele>
        <time>2017-11-15T20:12:30Z</time>
      </trkpt>
      <trkpt lat="45.30837" lon="5.89119">
        <ele>868.44702148438</ele>
        <time>2017-11-15T20:12:33Z</time>
      </trkpt>
      <trkpt lat="45.30841" lon="5.89123">
        <ele>869.44702148438</ele>
        <time>2017-11-15T20:12:36Z</time>
      </trkpt>
      <trkpt lat="45.30844" lon="5.89128">
        <ele>873.44702148438</ele>
        <time>2017-11-15T20:12:39Z</time>
      </trkpt>
      <trkpt lat="45.30848" lon="5.89132">
        <ele>875.44702148438</ele>
        <time>2017-11-15T20:12:43Z</time>
      </trkpt>
      <trkpt lat="45.30852" lon="5.89127">
        <ele>880.44702148438</ele>
        <time>2017-11-15T20:12:51Z</time>
      </trkpt>
      <trkpt lat="45.30853" lon="5.8912">
        <ele>882.44702148438</ele>
        <time>2017-11-15T20:12:56Z</time>
      </trkpt>
      <trkpt lat="45.30854" lon="5.89113">
        <ele>881.44702148438</ele>
        <time>2017-11-15T20:13:00Z</time>
      </trkpt>
      <trkpt lat="45.30854" lon="5.89106">
        <ele>884.44702148438</ele>
        <time>2017-11-15T20:13:05Z</time>
      </trkpt>
      <trkpt lat="45.30857" lon="5.89102">
        <ele>886.44702148438</ele>
        <time>2017-11-15T20:13:08Z</time>
      </trkpt>
      <trkpt lat="45.30859" lon="5.89095">
        <ele>888.44702148438</ele>
        <time>2017-11-15T20:13:12Z</time>
      </trkpt>
      <trkpt lat="45.30861" lon="5.89087">
        <ele>893.44702148438</ele>
        <time>2017-11-15T20:13:16Z</time>
      </trkpt>
      <trkpt lat="45.30862" lon="5.89081">
        <ele>898.44702148438</ele>
        <time>2017-11-15T20:13:20Z</time>
      </trkpt>
      <trkpt lat="45.30862" lon="5.89074">
        <ele>897.44702148438</ele>
        <time>2017-11-15T20:13:24Z</time>
      </trkpt>
      <trkpt lat="45.30863" lon="5.89066">
        <ele>898.44702148438</ele>
        <time>2017-11-15T20:13:29Z</time>
      </trkpt>
      <trkpt lat="45.30865" lon="5.89058">
        <ele>897.44702148438</ele>
        <time>2017-11-15T20:13:34Z</time>
      </trkpt>
      <trkpt lat="45.30862" lon="5.89053">
        <ele>899.44702148438</ele>
        <time>2017-11-15T20:13:37Z</time>
      </trkpt>
      <trkpt lat="45.30862" lon="5.89046">
        <ele>900.44702148438</ele>
        <time>2017-11-15T20:13:41Z</time>
      </trkpt>
      <trkpt lat="45.30866" lon="5.89038">
        <ele>898.44702148438</ele>
        <time>2017-11-15T20:13:45Z</time>
      </trkpt>
      <trkpt lat="45.30868" lon="5.89032">
        <ele>897.44702148438</ele>
        <time>2017-11-15T20:13:48Z</time>
      </trkpt>
      <trkpt lat="45.30867" lon="5.89021">
        <ele>896.44702148438</ele>
        <time>2017-11-15T20:13:51Z</time>
      </trkpt>
      <trkpt lat="45.30864" lon="5.89016">
        <ele>898.44702148438</ele>
        <time>2017-11-15T20:13:53Z</time>
      </trkpt>
      <trkpt lat="45.30864" lon="5.89009">
        <ele>901.44702148438</ele>
        <time>2017-11-15T20:13:55Z</time>
      </trkpt>
      <trkpt lat="45.30864" lon="5.89002">
        <ele>902.44702148438</ele>
        <time>2017-11-15T20:13:57Z</time>
      </trkpt>
      <trkpt lat="45.30865" lon="5.88995">
        <ele>904.44702148438</ele>
        <time>2017-11-15T20:14:00Z</time>
      </trkpt>
      <trkpt lat="45.30864" lon="5.88984">
        <ele>813.44702148438</ele>
        <time>2017-11-15T20:14:04Z</time>
      </trkpt>
      <trkpt lat="45.30862" lon="5.88976">
        <ele>867.44702148438</ele>
        <time>2017-11-15T20:14:07Z</time>
      </trkpt>
      <trkpt lat="45.30861" lon="5.88969">
        <ele>886.44702148438</ele>
        <time>2017-11-15T20:14:10Z</time>
      </trkpt>
      <trkpt lat="45.3086" lon="5.88963">
        <ele>896.44702148438</ele>
        <time>2017-11-15T20:14:13Z</time>
      </trkpt>
      <trkpt lat="45.30857" lon="5.88957">
        <ele>900.44702148438</ele>
        <time>2017-11-15T20:14:16Z</time>
      </trkpt>
      <trkpt lat="45.30857" lon="5.8895">
        <ele>900.44702148438</ele>
        <time>2017-11-15T20:14:19Z</time>
      </trkpt>
      <trkpt lat="45.30858" lon="5.88942">
        <ele>899.44702148438</ele>
        <time>2017-11-15T20:14:22Z</time>
      </trkpt>
      <trkpt lat="45.30856" lon="5.88935">
        <ele>902.44702148438</ele>
        <time>2017-11-15T20:14:25Z</time>
      </trkpt>
      <trkpt lat="45.30856" lon="5.88928">
        <ele>908.44702148438</ele>
        <time>2017-11-15T20:14:30Z</time>
      </trkpt>
      <trkpt lat="45.30857" lon="5.88921">
        <ele>907.44702148438</ele>
        <time>2017-11-15T20:14:32Z</time>
      </trkpt>
      <trkpt lat="45.30854" lon="5.88916">
        <ele>909.44702148438</ele>
        <time>2017-11-15T20:14:36Z</time>
      </trkpt>
      <trkpt lat="45.30856" lon="5.88909">
        <ele>912.44702148438</ele>
        <time>2017-11-15T20:14:39Z</time>
      </trkpt>
      <trkpt lat="45.30855" lon="5.88902">
        <ele>916.44702148438</ele>
        <time>2017-11-15T20:14:43Z</time>
      </trkpt>
      <trkpt lat="45.30856" lon="5.88894">
        <ele>920.44702148438</ele>
        <time>2017-11-15T20:14:47Z</time>
      </trkpt>
      <trkpt lat="45.30859" lon="5.8889">
        <ele>920.44702148438</ele>
        <time>2017-11-15T20:14:51Z</time>
      </trkpt>
      <trkpt lat="45.30865" lon="5.88892">
        <ele>924.44702148438</ele>
        <time>2017-11-15T20:14:58Z</time>
      </trkpt>
      <trkpt lat="45.30868" lon="5.88885">
        <ele>925.44702148438</ele>
        <time>2017-11-15T20:15:03Z</time>
      </trkpt>
      <trkpt lat="45.30868" lon="5.88879">
        <ele>925.44702148438</ele>
        <time>2017-11-15T20:15:06Z</time>
      </trkpt>
      <trkpt lat="45.30866" lon="5.88872">
        <ele>925.44702148438</ele>
        <time>2017-11-15T20:15:09Z</time>
      </trkpt>
      <trkpt lat="45.30866" lon="5.88864">
        <ele>927.44702148438</ele>
        <time>2017-11-15T20:15:13Z</time>
      </trkpt>
      <trkpt lat="45.30866" lon="5.88856">
        <ele>926.44702148438</ele>
        <time>2017-11-15T20:15:17Z</time>
      </trkpt>
      <trkpt lat="45.30865" lon="5.8885">
        <ele>927.44702148438</ele>
        <time>2017-11-15T20:15:22Z</time>
      </trkpt>
      <trkpt lat="45.30867" lon="5.88844">
        <ele>931.44702148438</ele>
        <time>2017-11-15T20:15:25Z</time>
      </trkpt>
      <trkpt lat="45.30867" lon="5.88837">
        <ele>931.44702148438</ele>
        <time>2017-11-15T20:15:28Z</time>
      </trkpt>
      <trkpt lat="45.30866" lon="5.88829">
        <ele>933.44702148438</ele>
        <time>2017-11-15T20:15:32Z</time>
      </trkpt>
      <trkpt lat="45.30865" lon="5.88821">
        <ele>934.44702148438</ele>
        <time>2017-11-15T20:15:36Z</time>
      </trkpt>
      <trkpt lat="45.30864" lon="5.88814">
        <ele>933.44702148438</ele>
        <time>2017-11-15T20:15:39Z</time>
      </trkpt>
      <trkpt lat="45.30862" lon="5.88807">
        <ele>936.44702148438</ele>
        <time>2017-11-15T20:15:42Z</time>
      </trkpt>
      <trkpt lat="45.3086" lon="5.888">
        <ele>940.44702148438</ele>
        <time>2017-11-15T20:15:46Z</time>
      </trkpt>
      <trkpt lat="45.30858" lon="5.88792">
        <ele>941.44702148438</ele>
        <time>2017-11-15T20:15:52Z</time>
      </trkpt>
      <trkpt lat="45.30858" lon="5.88784">
        <ele>942.44702148438</ele>
        <time>2017-11-15T20:15:55Z</time>
      </trkpt>
      <trkpt lat="45.30859" lon="5.88777">
        <ele>945.44702148438</ele>
        <time>2017-11-15T20:15:59Z</time>
      </trkpt>
      <trkpt lat="45.30859" lon="5.8877">
        <ele>950.44702148438</ele>
        <time>2017-11-15T20:16:02Z</time>
      </trkpt>
      <trkpt lat="45.3086" lon="5.88764">
        <ele>950.44702148438</ele>
        <time>2017-11-15T20:16:05Z</time>
      </trkpt>
      <trkpt lat="45.3086" lon="5.88756">
        <ele>950.44702148438</ele>
        <time>2017-11-15T20:16:09Z</time>
      </trkpt>
      <trkpt lat="45.30861" lon="5.88749">
        <ele>951.44702148438</ele>
        <time>2017-11-15T20:16:12Z</time>
      </trkpt>
      <trkpt lat="45.30859" lon="5.88756">
        <ele>949.44702148438</ele>
        <time>2017-11-15T20:16:18Z</time>
      </trkpt>
      <trkpt lat="45.3086" lon="5.88765">
        <ele>948.44702148438</ele>
        <time>2017-11-15T20:16:22Z</time>
      </trkpt>
      <trkpt lat="45.30859" lon="5.88771">
        <ele>949.44702148438</ele>
        <time>2017-11-15T20:16:24Z</time>
      </trkpt>
      <trkpt lat="45.30858" lon="5.88777">
        <ele>948.44702148438</ele>
        <time>2017-11-15T20:16:26Z</time>
      </trkpt>
      <trkpt lat="45.30859" lon="5.88785">
        <ele>946.44702148438</ele>
        <time>2017-11-15T20:16:28Z</time>
      </trkpt>
      <trkpt lat="45.30859" lon="5.88792">
        <ele>944.44702148438</ele>
        <time>2017-11-15T20:16:31Z</time>
      </trkpt>
      <trkpt lat="45.30861" lon="5.88803">
        <ele>943.44702148438</ele>
        <time>2017-11-15T20:16:35Z</time>
      </trkpt>
      <trkpt lat="45.30862" lon="5.88812">
        <ele>942.44702148438</ele>
        <time>2017-11-15T20:16:38Z</time>
      </trkpt>
      <trkpt lat="45.30863" lon="5.88818">
        <ele>942.44702148438</ele>
        <time>2017-11-15T20:16:40Z</time>
      </trkpt>
      <trkpt lat="45.30865" lon="5.88824">
        <ele>941.44702148438</ele>
        <time>2017-11-15T20:16:42Z</time>
      </trkpt>
      <trkpt lat="45.30866" lon="5.88831">
        <ele>940.44702148438</ele>
        <time>2017-11-15T20:16:45Z</time>
      </trkpt>
      <trkpt lat="45.30866" lon="5.88839">
        <ele>939.44702148438</ele>
        <time>2017-11-15T20:16:49Z</time>
      </trkpt>
      <trkpt lat="45.30867" lon="5.88846">
        <ele>743.44702148438</ele>
        <time>2017-11-15T20:16:52Z</time>
      </trkpt>
      <trkpt lat="45.30865" lon="5.88854">
        <ele>862.44702148438</ele>
        <time>2017-11-15T20:16:56Z</time>
      </trkpt>
      <trkpt lat="45.30863" lon="5.88863">
        <ele>911.44702148438</ele>
        <time>2017-11-15T20:17:00Z</time>
      </trkpt>
      <trkpt lat="45.30863" lon="5.88871">
        <ele>928.44702148438</ele>
        <time>2017-11-15T20:17:04Z</time>
      </trkpt>
      <trkpt lat="45.30864" lon="5.88879">
        <ele>928.44702148438</ele>
        <time>2017-11-15T20:17:08Z</time>
      </trkpt>
      <trkpt lat="45.30867" lon="5.88885">
        <ele>928.44702148438</ele>
        <time>2017-11-15T20:17:12Z</time>
      </trkpt>
      <trkpt lat="45.30863" lon="5.88889">
        <ele>928.44702148438</ele>
        <time>2017-11-15T20:17:16Z</time>
      </trkpt>
      <trkpt lat="45.30859" lon="5.88887">
        <ele>927.44702148438</ele>
        <time>2017-11-15T20:17:20Z</time>
      </trkpt>
      <trkpt lat="45.30853" lon="5.8889">
        <ele>928.44702148438</ele>
        <time>2017-11-15T20:17:24Z</time>
      </trkpt>
      <trkpt lat="45.30854" lon="5.88898">
        <ele>925.44702148438</ele>
        <time>2017-11-15T20:17:28Z</time>
      </trkpt>
      <trkpt lat="45.30856" lon="5.88905">
        <ele>926.44702148438</ele>
        <time>2017-11-15T20:17:31Z</time>
      </trkpt>
      <trkpt lat="45.30856" lon="5.88912">
        <ele>927.44702148438</ele>
        <time>2017-11-15T20:17:47Z</time>
      </trkpt>
      <trkpt lat="45.30859" lon="5.88919">
        <ele>923.44702148438</ele>
        <time>2017-11-15T20:17:50Z</time>
      </trkpt>
      <trkpt lat="45.30858" lon="5.88927">
        <ele>922.44702148438</ele>
        <time>2017-11-15T20:17:53Z</time>
      </trkpt>
      <trkpt lat="45.30858" lon="5.88933">
        <ele>921.44702148438</ele>
        <time>2017-11-15T20:17:57Z</time>
      </trkpt>
      <trkpt lat="45.30866" lon="5.88937">
        <ele>899.44702148438</ele>
        <time>2017-11-15T20:18:01Z</time>
      </trkpt>
      <trkpt lat="45.30867" lon="5.88943">
        <ele>901.44702148438</ele>
        <time>2017-11-15T20:18:04Z</time>
      </trkpt>
      <trkpt lat="45.30867" lon="5.88951">
        <ele>907.44702148438</ele>
        <time>2017-11-15T20:18:07Z</time>
      </trkpt>
      <trkpt lat="45.30864" lon="5.88957">
        <ele>910.44702148438</ele>
        <time>2017-11-15T20:18:10Z</time>
      </trkpt>
      <trkpt lat="45.30865" lon="5.88964">
        <ele>911.44702148438</ele>
        <time>2017-11-15T20:18:13Z</time>
      </trkpt>
      <trkpt lat="45.30865" lon="5.88972">
        <ele>911.44702148438</ele>
        <time>2017-11-15T20:18:16Z</time>
      </trkpt>
      <trkpt lat="45.30864" lon="5.8898">
        <ele>908.44702148438</ele>
        <time>2017-11-15T20:18:19Z</time>
      </trkpt>
      <trkpt lat="45.30863" lon="5.88988">
        <ele>908.44702148438</ele>
        <time>2017-11-15T20:18:22Z</time>
      </trkpt>
      <trkpt lat="45.30863" lon="5.88998">
        <ele>908.44702148438</ele>
        <time>2017-11-15T20:18:25Z</time>
      </trkpt>
      <trkpt lat="45.30866" lon="5.89005">
        <ele>907.44702148438</ele>
        <time>2017-11-15T20:18:28Z</time>
      </trkpt>
      <trkpt lat="45.30869" lon="5.89011">
        <ele>900.44702148438</ele>
        <time>2017-11-15T20:18:31Z</time>
      </trkpt>
      <trkpt lat="45.30869" lon="5.89017">
        <ele>900.44702148438</ele>
        <time>2017-11-15T20:18:34Z</time>
      </trkpt>
      <trkpt lat="45.30867" lon="5.89025">
        <ele>901.44702148438</ele>
        <time>2017-11-15T20:18:38Z</time>
      </trkpt>
      <trkpt lat="45.30868" lon="5.89033">
        <ele>900.44702148438</ele>
        <time>2017-11-15T20:18:41Z</time>
      </trkpt>
      <trkpt lat="45.30868" lon="5.89042">
        <ele>902.44702148438</ele>
        <time>2017-11-15T20:18:45Z</time>
      </trkpt>
      <trkpt lat="45.30869" lon="5.89049">
        <ele>901.44702148438</ele>
        <time>2017-11-15T20:18:48Z</time>
      </trkpt>
      <trkpt lat="45.30866" lon="5.89055">
        <ele>900.44702148438</ele>
        <time>2017-11-15T20:18:50Z</time>
      </trkpt>
      <trkpt lat="45.30867" lon="5.89062">
        <ele>898.44702148438</ele>
        <time>2017-11-15T20:18:53Z</time>
      </trkpt>
      <trkpt lat="45.30869" lon="5.89069">
        <ele>897.44702148438</ele>
        <time>2017-11-15T20:18:57Z</time>
      </trkpt>
      <trkpt lat="45.30867" lon="5.89077">
        <ele>898.44702148438</ele>
        <time>2017-11-15T20:19:00Z</time>
      </trkpt>
      <trkpt lat="45.30865" lon="5.89085">
        <ele>897.44702148438</ele>
        <time>2017-11-15T20:19:04Z</time>
      </trkpt>
      <trkpt lat="45.30863" lon="5.89093">
        <ele>894.44702148438</ele>
        <time>2017-11-15T20:19:07Z</time>
      </trkpt>
      <trkpt lat="45.30862" lon="5.891">
        <ele>892.44702148438</ele>
        <time>2017-11-15T20:19:09Z</time>
      </trkpt>
      <trkpt lat="45.30861" lon="5.89107">
        <ele>891.44702148438</ele>
        <time>2017-11-15T20:19:12Z</time>
      </trkpt>
      <trkpt lat="45.30858" lon="5.89114">
        <ele>891.44702148438</ele>
        <time>2017-11-15T20:19:15Z</time>
      </trkpt>
      <trkpt lat="45.30856" lon="5.8912">
        <ele>889.44702148438</ele>
        <time>2017-11-15T20:19:19Z</time>
      </trkpt>
      <trkpt lat="45.30852" lon="5.89124">
        <ele>887.44702148438</ele>
        <time>2017-11-15T20:19:22Z</time>
      </trkpt>
      <trkpt lat="45.30852" lon="5.89132">
        <ele>889.44702148438</ele>
        <time>2017-11-15T20:19:25Z</time>
      </trkpt>
      <trkpt lat="45.30847" lon="5.89134">
        <ele>887.44702148438</ele>
        <time>2017-11-15T20:19:28Z</time>
      </trkpt>
      <trkpt lat="45.30841" lon="5.89132">
        <ele>887.44702148438</ele>
        <time>2017-11-15T20:19:33Z</time>
      </trkpt>
      <trkpt lat="45.30831" lon="5.89124">
        <ele>886.44702148438</ele>
        <time>2017-11-15T20:19:39Z</time>
      </trkpt>
      <trkpt lat="45.30826" lon="5.8912">
        <ele>881.44702148438</ele>
        <time>2017-11-15T20:19:44Z</time>
      </trkpt>
      <trkpt lat="45.30822" lon="5.89117">
        <ele>882.44702148438</ele>
        <time>2017-11-15T20:19:46Z</time>
      </trkpt>
      <trkpt lat="45.30818" lon="5.89114">
        <ele>882.44702148438</ele>
        <time>2017-11-15T20:19:48Z</time>
      </trkpt>
      <trkpt lat="45.30814" lon="5.89109">
        <ele>882.44702148438</ele>
        <time>2017-11-15T20:19:51Z</time>
      </trkpt>
      <trkpt lat="45.30815" lon="5.89102">
        <ele>876.44702148438</ele>
        <time>2017-11-15T20:19:56Z</time>
      </trkpt>
      <trkpt lat="45.30811" lon="5.89099">
        <ele>876.44702148438</ele>
        <time>2017-11-15T20:19:59Z</time>
      </trkpt>
      <trkpt lat="45.30809" lon="5.89093">
        <ele>876.44702148438</ele>
        <time>2017-11-15T20:20:03Z</time>
      </trkpt>
      <trkpt lat="45.30806" lon="5.89087">
        <ele>873.44702148438</ele>
        <time>2017-11-15T20:20:07Z</time>
      </trkpt>
      <trkpt lat="45.30805" lon="5.8908">
        <ele>874.44702148438</ele>
        <time>2017-11-15T20:20:13Z</time>
      </trkpt>
      <trkpt lat="45.30802" lon="5.89074">
        <ele>871.44702148438</ele>
        <time>2017-11-15T20:20:20Z</time>
      </trkpt>
      <trkpt lat="45.30798" lon="5.89071">
        <ele>872.44702148438</ele>
        <time>2017-11-15T20:20:23Z</time>
      </trkpt>
      <trkpt lat="45.308" lon="5.89065">
        <ele>871.44702148438</ele>
        <time>2017-11-15T20:20:26Z</time>
      </trkpt>
      <trkpt lat="45.30797" lon="5.89059">
        <ele>868.44702148438</ele>
        <time>2017-11-15T20:20:30Z</time>
      </trkpt>
      <trkpt lat="45.30793" lon="5.89054">
        <ele>867.44702148438</ele>
        <time>2017-11-15T20:20:34Z</time>
      </trkpt>
      <trkpt lat="45.3079" lon="5.89049">
        <ele>865.44702148438</ele>
        <time>2017-11-15T20:20:41Z</time>
      </trkpt>
      <trkpt lat="45.30787" lon="5.89043">
        <ele>864.44702148438</ele>
        <time>2017-11-15T20:20:45Z</time>
      </trkpt>
      <trkpt lat="45.30786" lon="5.89034">
        <ele>863.44702148438</ele>
        <time>2017-11-15T20:20:48Z</time>
      </trkpt>
      <trkpt lat="45.30782" lon="5.89033">
        <ele>863.44702148438</ele>
        <time>2017-11-15T20:20:50Z</time>
      </trkpt>
      <trkpt lat="45.30776" lon="5.8903">
        <ele>862.44702148438</ele>
        <time>2017-11-15T20:20:53Z</time>
      </trkpt>
      <trkpt lat="45.30772" lon="5.89027">
        <ele>863.44702148438</ele>
        <time>2017-11-15T20:20:55Z</time>
      </trkpt>
      <trkpt lat="45.3077" lon="5.89018">
        <ele>862.44702148438</ele>
        <time>2017-11-15T20:20:58Z</time>
      </trkpt>
      <trkpt lat="45.30766" lon="5.89013">
        <ele>862.44702148438</ele>
        <time>2017-11-15T20:21:00Z</time>
      </trkpt>
      <trkpt lat="45.30761" lon="5.89011">
        <ele>863.44702148438</ele>
        <time>2017-11-15T20:21:02Z</time>
      </trkpt>
      <trkpt lat="45.3076" lon="5.89004">
        <ele>866.44702148438</ele>
        <time>2017-11-15T20:21:04Z</time>
      </trkpt>
      <trkpt lat="45.30761" lon="5.88997">
        <ele>864.44702148438</ele>
        <time>2017-11-15T20:21:06Z</time>
      </trkpt>
      <trkpt lat="45.30759" lon="5.8899">
        <ele>862.44702148438</ele>
        <time>2017-11-15T20:21:09Z</time>
      </trkpt>
      <trkpt lat="45.30757" lon="5.88984">
        <ele>860.44702148438</ele>
        <time>2017-11-15T20:21:12Z</time>
      </trkpt>
      <trkpt lat="45.30755" lon="5.88978">
        <ele>857.44702148438</ele>
        <time>2017-11-15T20:21:17Z</time>
      </trkpt>
      <trkpt lat="45.30752" lon="5.88972">
        <ele>856.44702148438</ele>
        <time>2017-11-15T20:21:20Z</time>
      </trkpt>
      <trkpt lat="45.30747" lon="5.88966">
        <ele>853.44702148438</ele>
        <time>2017-11-15T20:21:24Z</time>
      </trkpt>
      <trkpt lat="45.30744" lon="5.8896">
        <ele>853.44702148438</ele>
        <time>2017-11-15T20:21:27Z</time>
      </trkpt>
      <trkpt lat="45.3074" lon="5.88952">
        <ele>853.44702148438</ele>
        <time>2017-11-15T20:21:30Z</time>
      </trkpt>
      <trkpt lat="45.30739" lon="5.88943">
        <ele>851.44702148438</ele>
        <time>2017-11-15T20:21:33Z</time>
      </trkpt>
      <trkpt lat="45.30738" lon="5.88936">
        <ele>851.44702148438</ele>
        <time>2017-11-15T20:21:35Z</time>
      </trkpt>
      <trkpt lat="45.30738" lon="5.8893">
        <ele>850.44702148438</ele>
        <time>2017-11-15T20:21:37Z</time>
      </trkpt>
      <trkpt lat="45.30737" lon="5.88923">
        <ele>848.44702148438</ele>
        <time>2017-11-15T20:21:40Z</time>
      </trkpt>
      <trkpt lat="45.30737" lon="5.88916">
        <ele>847.44702148438</ele>
        <time>2017-11-15T20:21:45Z</time>
      </trkpt>
      <trkpt lat="45.30735" lon="5.8891">
        <ele>847.44702148438</ele>
        <time>2017-11-15T20:21:49Z</time>
      </trkpt>
      <trkpt lat="45.3073" lon="5.88912">
        <ele>845.44702148438</ele>
        <time>2017-11-15T20:21:59Z</time>
      </trkpt>
      <trkpt lat="45.30726" lon="5.88911">
        <ele>841.44702148438</ele>
        <time>2017-11-15T20:22:05Z</time>
      </trkpt>
      <trkpt lat="45.30726" lon="5.88917">
        <ele>838.44702148438</ele>
        <time>2017-11-15T20:22:14Z</time>
      </trkpt>
      <trkpt lat="45.30721" lon="5.88918">
        <ele>836.44702148438</ele>
        <time>2017-11-15T20:22:20Z</time>
      </trkpt>
      <trkpt lat="45.30718" lon="5.88925">
        <ele>834.44702148438</ele>
        <time>2017-11-15T20:22:29Z</time>
      </trkpt>
      <trkpt lat="45.30714" lon="5.88929">
        <ele>833.44702148438</ele>
        <time>2017-11-15T20:22:34Z</time>
      </trkpt>
      <trkpt lat="45.30713" lon="5.88937">
        <ele>832.44702148438</ele>
        <time>2017-11-15T20:22:40Z</time>
      </trkpt>
      <trkpt lat="45.30715" lon="5.88943">
        <ele>828.44702148438</ele>
        <time>2017-11-15T20:22:43Z</time>
      </trkpt>
      <trkpt lat="45.30714" lon="5.8895">
        <ele>824.44702148438</ele>
        <time>2017-11-15T20:22:49Z</time>
      </trkpt>
      <trkpt lat="45.30718" lon="5.88956">
        <ele>817.44702148438</ele>
        <time>2017-11-15T20:22:58Z</time>
      </trkpt>
      <trkpt lat="45.30722" lon="5.8896">
        <ele>814.44702148438</ele>
        <time>2017-11-15T20:23:11Z</time>
      </trkpt>
      <trkpt lat="45.30727" lon="5.88956">
        <ele>809.44702148438</ele>
        <time>2017-11-15T20:23:21Z</time>
      </trkpt>
      <trkpt lat="45.30738" lon="5.88951">
        <ele>801.44702148438</ele>
        <time>2017-11-15T20:23:24Z</time>
      </trkpt>
      <trkpt lat="45.30744" lon="5.88944">
        <ele>787.44702148438</ele>
        <time>2017-11-15T20:23:26Z</time>
      </trkpt>
      <trkpt lat="45.30749" lon="5.88937">
        <ele>774.44702148438</ele>
        <time>2017-11-15T20:23:28Z</time>
      </trkpt>
      <trkpt lat="45.30753" lon="5.88937">
        <ele>769.44702148438</ele>
        <time>2017-11-15T20:23:30Z</time>
      </trkpt>
      <trkpt lat="45.30762" lon="5.88944">
        <ele>748.44702148438</ele>
        <time>2017-11-15T20:23:38Z</time>
      </trkpt>
      <trkpt lat="45.30765" lon="5.8895">
        <ele>745.44702148438</ele>
        <time>2017-11-15T20:23:42Z</time>
      </trkpt>
      <trkpt lat="45.30767" lon="5.88957">
        <ele>746.44702148438</ele>
        <time>2017-11-15T20:23:45Z</time>
      </trkpt>
      <trkpt lat="45.30768" lon="5.88965">
        <ele>748.44702148438</ele>
        <time>2017-11-15T20:23:49Z</time>
      </trkpt>
      <trkpt lat="45.30769" lon="5.88972">
        <ele>749.44702148438</ele>
        <time>2017-11-15T20:23:52Z</time>
      </trkpt>
      <trkpt lat="45.30771" lon="5.8898">
        <ele>751.44702148438</ele>
        <time>2017-11-15T20:23:55Z</time>
      </trkpt>
      <trkpt lat="45.30776" lon="5.88987">
        <ele>751.44702148438</ele>
        <time>2017-11-15T20:23:58Z</time>
      </trkpt>
      <trkpt lat="45.3078" lon="5.88993">
        <ele>752.44702148438</ele>
        <time>2017-11-15T20:24:01Z</time>
      </trkpt>
      <trkpt lat="45.30781" lon="5.89002">
        <ele>753.44702148438</ele>
        <time>2017-11-15T20:24:04Z</time>
      </trkpt>
      <trkpt lat="45.30782" lon="5.89008">
        <ele>755.44702148438</ele>
        <time>2017-11-15T20:24:06Z</time>
      </trkpt>
      <trkpt lat="45.30785" lon="5.89017">
        <ele>758.44702148438</ele>
        <time>2017-11-15T20:24:09Z</time>
      </trkpt>
      <trkpt lat="45.30785" lon="5.89024">
        <ele>759.44702148438</ele>
        <time>2017-11-15T20:24:11Z</time>
      </trkpt>
      <trkpt lat="45.30786" lon="5.89033">
        <ele>762.44702148438</ele>
        <time>2017-11-15T20:24:13Z</time>
      </trkpt>
      <trkpt lat="45.30788" lon="5.89041">
        <ele>766.44702148438</ele>
        <time>2017-11-15T20:24:15Z</time>
      </trkpt>
      <trkpt lat="45.3079" lon="5.8905">
        <ele>770.44702148438</ele>
        <time>2017-11-15T20:24:18Z</time>
      </trkpt>
      <trkpt lat="45.30793" lon="5.89059">
        <ele>773.44702148438</ele>
        <time>2017-11-15T20:24:20Z</time>
      </trkpt>
      <trkpt lat="45.30794" lon="5.89068">
        <ele>775.44702148438</ele>
        <time>2017-11-15T20:24:22Z</time>
      </trkpt>
      <trkpt lat="45.30795" lon="5.8908">
        <ele>779.44702148438</ele>
        <time>2017-11-15T20:24:24Z</time>
      </trkpt>
      <trkpt lat="45.30796" lon="5.8909">
        <ele>782.44702148438</ele>
        <time>2017-11-15T20:24:26Z</time>
      </trkpt>
      <trkpt lat="45.30797" lon="5.89099">
        <ele>784.44702148438</ele>
        <time>2017-11-15T20:24:28Z</time>
      </trkpt>
      <trkpt lat="45.30796" lon="5.89107">
        <ele>785.44702148438</ele>
        <time>2017-11-15T20:24:30Z</time>
      </trkpt>
      <trkpt lat="45.30796" lon="5.89116">
        <ele>785.44702148438</ele>
        <time>2017-11-15T20:24:32Z</time>
      </trkpt>
      <trkpt lat="45.30795" lon="5.89124">
        <ele>784.44702148438</ele>
        <time>2017-11-15T20:24:34Z</time>
      </trkpt>
      <trkpt lat="45.30794" lon="5.8913">
        <ele>784.44702148438</ele>
        <time>2017-11-15T20:24:36Z</time>
      </trkpt>
      <trkpt lat="45.30793" lon="5.89139">
        <ele>785.44702148438</ele>
        <time>2017-11-15T20:24:39Z</time>
      </trkpt>
      <trkpt lat="45.30793" lon="5.89146">
        <ele>785.44702148438</ele>
        <time>2017-11-15T20:24:41Z</time>
      </trkpt>
      <trkpt lat="45.30794" lon="5.89153">
        <ele>786.44702148438</ele>
        <time>2017-11-15T20:24:44Z</time>
      </trkpt>
      <trkpt lat="45.30795" lon="5.8916">
        <ele>787.44702148438</ele>
        <time>2017-11-15T20:24:48Z</time>
      </trkpt>
      <trkpt lat="45.30795" lon="5.89167">
        <ele>783.44702148438</ele>
        <time>2017-11-15T20:24:54Z</time>
      </trkpt>
      <trkpt lat="45.30795" lon="5.89174">
        <ele>781.44702148438</ele>
        <time>2017-11-15T20:24:58Z</time>
      </trkpt>
      <trkpt lat="45.30794" lon="5.89183">
        <ele>780.44702148438</ele>
        <time>2017-11-15T20:25:02Z</time>
      </trkpt>
      <trkpt lat="45.30789" lon="5.89179">
        <ele>778.44702148438</ele>
        <time>2017-11-15T20:25:07Z</time>
      </trkpt>
      <trkpt lat="45.30785" lon="5.89173">
        <ele>775.44702148438</ele>
        <time>2017-11-15T20:25:11Z</time>
      </trkpt>
      <trkpt lat="45.30784" lon="5.89164">
        <ele>771.44702148438</ele>
        <time>2017-11-15T20:25:15Z</time>
      </trkpt>
      <trkpt lat="45.3078" lon="5.89159">
        <ele>771.44702148438</ele>
        <time>2017-11-15T20:25:18Z</time>
      </trkpt>
      <trkpt lat="45.30777" lon="5.89154">
        <ele>772.44702148438</ele>
        <time>2017-11-15T20:25:22Z</time>
      </trkpt>
      <trkpt lat="45.30774" lon="5.89148">
        <ele>771.44702148438</ele>
        <time>2017-11-15T20:25:27Z</time>
      </trkpt>
      <trkpt lat="45.3077" lon="5.89145">
        <ele>770.44702148438</ele>
        <time>2017-11-15T20:25:31Z</time>
      </trkpt>
      <trkpt lat="45.30766" lon="5.89141">
        <ele>769.44702148438</ele>
        <time>2017-11-15T20:25:34Z</time>
      </trkpt>
      <trkpt lat="45.30765" lon="5.89132">
        <ele>768.44702148438</ele>
        <time>2017-11-15T20:25:38Z</time>
      </trkpt>
      <trkpt lat="45.30761" lon="5.89126">
        <ele>766.44702148438</ele>
        <time>2017-11-15T20:25:40Z</time>
      </trkpt>
      <trkpt lat="45.30759" lon="5.89117">
        <ele>766.44702148438</ele>
        <time>2017-11-15T20:25:44Z</time>
      </trkpt>
      <trkpt lat="45.30756" lon="5.8911">
        <ele>761.44702148438</ele>
        <time>2017-11-15T20:25:49Z</time>
      </trkpt>
      <trkpt lat="45.30751" lon="5.8911">
        <ele>758.44702148438</ele>
        <time>2017-11-15T20:25:51Z</time>
      </trkpt>
      <trkpt lat="45.30745" lon="5.89109">
        <ele>758.44702148438</ele>
        <time>2017-11-15T20:25:54Z</time>
      </trkpt>
      <trkpt lat="45.30741" lon="5.89109">
        <ele>761.44702148438</ele>
        <time>2017-11-15T20:25:58Z</time>
      </trkpt>
      <trkpt lat="45.30732" lon="5.89106">
        <ele>799.44702148438</ele>
        <time>2017-11-15T20:26:02Z</time>
      </trkpt>
      <trkpt lat="45.30727" lon="5.89101">
        <ele>781.44702148438</ele>
        <time>2017-11-15T20:26:05Z</time>
      </trkpt>
      <trkpt lat="45.3072" lon="5.89098">
        <ele>774.44702148438</ele>
        <time>2017-11-15T20:26:07Z</time>
      </trkpt>
      <trkpt lat="45.30714" lon="5.89096">
        <ele>766.44702148438</ele>
        <time>2017-11-15T20:26:11Z</time>
      </trkpt>
      <trkpt lat="45.30709" lon="5.89095">
        <ele>763.44702148438</ele>
        <time>2017-11-15T20:26:15Z</time>
      </trkpt>
      <trkpt lat="45.30705" lon="5.89094">
        <ele>761.44702148438</ele>
        <time>2017-11-15T20:26:19Z</time>
      </trkpt>
      <trkpt lat="45.30699" lon="5.89092">
        <ele>757.44702148438</ele>
        <time>2017-11-15T20:26:22Z</time>
      </trkpt>
      <trkpt lat="45.30694" lon="5.8909">
        <ele>754.44702148438</ele>
        <time>2017-11-15T20:26:26Z</time>
      </trkpt>
      <trkpt lat="45.30691" lon="5.89084">
        <ele>753.44702148438</ele>
        <time>2017-11-15T20:26:29Z</time>
      </trkpt>
      <trkpt lat="45.30687" lon="5.8909">
        <ele>750.44702148438</ele>
        <time>2017-11-15T20:26:33Z</time>
      </trkpt>
      <trkpt lat="45.30688" lon="5.89098">
        <ele>740.44702148438</ele>
        <time>2017-11-15T20:26:41Z</time>
      </trkpt>
      <trkpt lat="45.3069" lon="5.89105">
        <ele>741.44702148438</ele>
        <time>2017-11-15T20:26:51Z</time>
      </trkpt>
      <trkpt lat="45.3069" lon="5.89112">
        <ele>739.44702148438</ele>
        <time>2017-11-15T20:26:53Z</time>
      </trkpt>
      <trkpt lat="45.30694" lon="5.8912">
        <ele>738.44702148438</ele>
        <time>2017-11-15T20:26:56Z</time>
      </trkpt>
      <trkpt lat="45.30697" lon="5.8913">
        <ele>736.44702148438</ele>
        <time>2017-11-15T20:27:00Z</time>
      </trkpt>
      <trkpt lat="45.307" lon="5.89145">
        <ele>736.44702148438</ele>
        <time>2017-11-15T20:27:05Z</time>
      </trkpt>
      <trkpt lat="45.30701" lon="5.89151">
        <ele>728.44702148438</ele>
        <time>2017-11-15T20:27:11Z</time>
      </trkpt>
      <trkpt lat="45.30703" lon="5.89159">
        <ele>725.44702148438</ele>
        <time>2017-11-15T20:27:16Z</time>
      </trkpt>
      <trkpt lat="45.30706" lon="5.89165">
        <ele>721.44702148438</ele>
        <time>2017-11-15T20:27:20Z</time>
      </trkpt>
      <trkpt lat="45.30708" lon="5.89171">
        <ele>721.44702148438</ele>
        <time>2017-11-15T20:27:24Z</time>
      </trkpt>
      <trkpt lat="45.30707" lon="5.89177">
        <ele>722.44702148438</ele>
        <time>2017-11-15T20:27:27Z</time>
      </trkpt>
      <trkpt lat="45.30706" lon="5.89185">
        <ele>719.44702148438</ele>
        <time>2017-11-15T20:27:31Z</time>
      </trkpt>
      <trkpt lat="45.30703" lon="5.89192">
        <ele>716.44702148438</ele>
        <time>2017-11-15T20:27:34Z</time>
      </trkpt>
      <trkpt lat="45.30703" lon="5.89199">
        <ele>715.44702148438</ele>
        <time>2017-11-15T20:27:37Z</time>
      </trkpt>
      <trkpt lat="45.30703" lon="5.89205">
        <ele>713.44702148438</ele>
        <time>2017-11-15T20:27:41Z</time>
      </trkpt>
      <trkpt lat="45.30703" lon="5.89213">
        <ele>711.44702148438</ele>
        <time>2017-11-15T20:27:44Z</time>
      </trkpt>
      <trkpt lat="45.30704" lon="5.8922">
        <ele>708.44702148438</ele>
        <time>2017-11-15T20:27:47Z</time>
      </trkpt>
      <trkpt lat="45.30705" lon="5.89227">
        <ele>707.44702148438</ele>
        <time>2017-11-15T20:27:50Z</time>
      </trkpt>
      <trkpt lat="45.30705" lon="5.89235">
        <ele>705.44702148438</ele>
        <time>2017-11-15T20:27:54Z</time>
      </trkpt>
      <trkpt lat="45.30707" lon="5.89242">
        <ele>700.44702148438</ele>
        <time>2017-11-15T20:27:58Z</time>
      </trkpt>
      <trkpt lat="45.30707" lon="5.89249">
        <ele>700.44702148438</ele>
        <time>2017-11-15T20:28:01Z</time>
      </trkpt>
      <trkpt lat="45.30709" lon="5.89257">
        <ele>700.44702148438</ele>
        <time>2017-11-15T20:28:05Z</time>
      </trkpt>
      <trkpt lat="45.30708" lon="5.89263">
        <ele>697.44702148438</ele>
        <time>2017-11-15T20:28:08Z</time>
      </trkpt>
      <trkpt lat="45.30707" lon="5.8927">
        <ele>695.44702148438</ele>
        <time>2017-11-15T20:28:11Z</time>
      </trkpt>
      <trkpt lat="45.30704" lon="5.89277">
        <ele>695.44702148438</ele>
        <time>2017-11-15T20:28:14Z</time>
      </trkpt>
      <trkpt lat="45.30705" lon="5.89284">
        <ele>694.44702148438</ele>
        <time>2017-11-15T20:28:18Z</time>
      </trkpt>
      <trkpt lat="45.30707" lon="5.8929">
        <ele>687.44702148438</ele>
        <time>2017-11-15T20:28:23Z</time>
      </trkpt>
      <trkpt lat="45.30707" lon="5.89298">
        <ele>686.44702148438</ele>
        <time>2017-11-15T20:28:26Z</time>
      </trkpt>
      <trkpt lat="45.30708" lon="5.89304">
        <ele>686.44702148438</ele>
        <time>2017-11-15T20:28:29Z</time>
      </trkpt>
      <trkpt lat="45.30705" lon="5.8931">
        <ele>687.44702148438</ele>
        <time>2017-11-15T20:28:32Z</time>
      </trkpt>
      <trkpt lat="45.30704" lon="5.89317">
        <ele>688.44702148438</ele>
        <time>2017-11-15T20:28:35Z</time>
      </trkpt>
      <trkpt lat="45.30705" lon="5.89325">
        <ele>686.44702148438</ele>
        <time>2017-11-15T20:28:39Z</time>
      </trkpt>
      <trkpt lat="45.30702" lon="5.89331">
        <ele>685.44702148438</ele>
        <time>2017-11-15T20:28:42Z</time>
      </trkpt>
      <trkpt lat="45.30703" lon="5.89338">
        <ele>680.44702148438</ele>
        <time>2017-11-15T20:28:49Z</time>
      </trkpt>
      <trkpt lat="45.30706" lon="5.89344">
        <ele>677.44702148438</ele>
        <time>2017-11-15T20:28:53Z</time>
      </trkpt>
      <trkpt lat="45.30704" lon="5.89351">
        <ele>675.44702148438</ele>
        <time>2017-11-15T20:28:57Z</time>
      </trkpt>
      <trkpt lat="45.30704" lon="5.89358">
        <ele>676.44702148438</ele>
        <time>2017-11-15T20:29:02Z</time>
      </trkpt>
      <trkpt lat="45.307" lon="5.89354">
        <ele>677.44702148438</ele>
        <time>2017-11-15T20:29:08Z</time>
      </trkpt>
      <trkpt lat="45.30695" lon="5.89357">
        <ele>676.44702148438</ele>
        <time>2017-11-15T20:29:10Z</time>
      </trkpt>
      <trkpt lat="45.30691" lon="5.89353">
        <ele>675.44702148438</ele>
        <time>2017-11-15T20:29:14Z</time>
      </trkpt>
      <trkpt lat="45.30688" lon="5.89346">
        <ele>670.44702148438</ele>
        <time>2017-11-15T20:29:22Z</time>
      </trkpt>
      <trkpt lat="45.30684" lon="5.89342">
        <ele>669.44702148438</ele>
        <time>2017-11-15T20:29:26Z</time>
      </trkpt>
      <trkpt lat="45.3068" lon="5.89338">
        <ele>669.44702148438</ele>
        <time>2017-11-15T20:29:29Z</time>
      </trkpt>
      <trkpt lat="45.30676" lon="5.89334">
        <ele>670.44702148438</ele>
        <time>2017-11-15T20:29:33Z</time>
      </trkpt>
      <trkpt lat="45.30675" lon="5.89341">
        <ele>668.44702148438</ele>
        <time>2017-11-15T20:29:39Z</time>
      </trkpt>
      <trkpt lat="45.30676" lon="5.89349">
        <ele>663.44702148438</ele>
        <time>2017-11-15T20:29:43Z</time>
      </trkpt>
      <trkpt lat="45.30676" lon="5.89357">
        <ele>661.44702148438</ele>
        <time>2017-11-15T20:29:47Z</time>
      </trkpt>
      <trkpt lat="45.3067" lon="5.89355">
        <ele>659.44702148438</ele>
        <time>2017-11-15T20:29:52Z</time>
      </trkpt>
      <trkpt lat="45.30667" lon="5.8935">
        <ele>656.44702148438</ele>
        <time>2017-11-15T20:29:58Z</time>
      </trkpt>
      <trkpt lat="45.30663" lon="5.89346">
        <ele>655.44702148438</ele>
        <time>2017-11-15T20:30:02Z</time>
      </trkpt>
      <trkpt lat="45.30658" lon="5.89346">
        <ele>655.44702148438</ele>
        <time>2017-11-15T20:30:06Z</time>
      </trkpt>
      <trkpt lat="45.30656" lon="5.89353">
        <ele>653.44702148438</ele>
        <time>2017-11-15T20:30:12Z</time>
      </trkpt>
      <trkpt lat="45.30653" lon="5.89358">
        <ele>654.44702148438</ele>
        <time>2017-11-15T20:30:17Z</time>
      </trkpt>
      <trkpt lat="45.3065" lon="5.89352">
        <ele>652.44702148438</ele>
        <time>2017-11-15T20:30:22Z</time>
      </trkpt>
      <trkpt lat="45.30646" lon="5.89347">
        <ele>652.44702148438</ele>
        <time>2017-11-15T20:30:27Z</time>
      </trkpt>
      <trkpt lat="45.30641" lon="5.89343">
        <ele>649.44702148438</ele>
        <time>2017-11-15T20:30:31Z</time>
      </trkpt>
      <trkpt lat="45.30635" lon="5.89339">
        <ele>648.44702148438</ele>
        <time>2017-11-15T20:30:35Z</time>
      </trkpt>
      <trkpt lat="45.30632" lon="5.89334">
        <ele>648.44702148438</ele>
        <time>2017-11-15T20:30:38Z</time>
      </trkpt>
      <trkpt lat="45.30629" lon="5.89328">
        <ele>647.44702148438</ele>
        <time>2017-11-15T20:30:41Z</time>
      </trkpt>
      <trkpt lat="45.30625" lon="5.89324">
        <ele>644.44702148438</ele>
        <time>2017-11-15T20:30:45Z</time>
      </trkpt>
      <trkpt lat="45.3062" lon="5.89326">
        <ele>644.44702148438</ele>
        <time>2017-11-15T20:30:49Z</time>
      </trkpt>
      <trkpt lat="45.3062" lon="5.89334">
        <ele>638.44702148438</ele>
        <time>2017-11-15T20:30:54Z</time>
      </trkpt>
      <trkpt lat="45.30619" lon="5.89342">
        <ele>637.44702148438</ele>
        <time>2017-11-15T20:30:58Z</time>
      </trkpt>
      <trkpt lat="45.3062" lon="5.8935">
        <ele>633.44702148438</ele>
        <time>2017-11-15T20:31:03Z</time>
      </trkpt>
      <trkpt lat="45.30621" lon="5.89356">
        <ele>632.44702148438</ele>
        <time>2017-11-15T20:31:08Z</time>
      </trkpt>
      <trkpt lat="45.30616" lon="5.89356">
        <ele>630.44702148438</ele>
        <time>2017-11-15T20:31:14Z</time>
      </trkpt>
      <trkpt lat="45.30613" lon="5.8935">
        <ele>627.44702148438</ele>
        <time>2017-11-15T20:31:20Z</time>
      </trkpt>
      <trkpt lat="45.30609" lon="5.89354">
        <ele>625.44702148438</ele>
        <time>2017-11-15T20:31:27Z</time>
      </trkpt>
      <trkpt lat="45.30607" lon="5.8936">
        <ele>621.44702148438</ele>
        <time>2017-11-15T20:31:32Z</time>
      </trkpt>
      <trkpt lat="45.30603" lon="5.89366">
        <ele>620.44702148438</ele>
        <time>2017-11-15T20:31:36Z</time>
      </trkpt>
      <trkpt lat="45.306" lon="5.89372">
        <ele>620.44702148438</ele>
        <time>2017-11-15T20:31:39Z</time>
      </trkpt>
      <trkpt lat="45.30598" lon="5.89379">
        <ele>619.44702148438</ele>
        <time>2017-11-15T20:31:43Z</time>
      </trkpt>
      <trkpt lat="45.30601" lon="5.89389">
        <ele>616.44702148438</ele>
        <time>2017-11-15T20:31:47Z</time>
      </trkpt>
      <trkpt lat="45.30605" lon="5.89395">
        <ele>617.44702148438</ele>
        <time>2017-11-15T20:31:50Z</time>
      </trkpt>
      <trkpt lat="45.3061" lon="5.89397">
        <ele>616.44702148438</ele>
        <time>2017-11-15T20:31:55Z</time>
      </trkpt>
      <trkpt lat="45.3061" lon="5.89405">
        <ele>612.44702148438</ele>
        <time>2017-11-15T20:32:00Z</time>
      </trkpt>
      <trkpt lat="45.30607" lon="5.8941">
        <ele>611.44702148438</ele>
        <time>2017-11-15T20:32:03Z</time>
      </trkpt>
      <trkpt lat="45.30604" lon="5.89416">
        <ele>611.44702148438</ele>
        <time>2017-11-15T20:32:09Z</time>
      </trkpt>
      <trkpt lat="45.306" lon="5.89421">
        <ele>609.44702148438</ele>
        <time>2017-11-15T20:32:14Z</time>
      </trkpt>
      <trkpt lat="45.30596" lon="5.89425">
        <ele>606.44702148438</ele>
        <time>2017-11-15T20:32:20Z</time>
      </trkpt>
      <trkpt lat="45.30591" lon="5.89426">
        <ele>603.44702148438</ele>
        <time>2017-11-15T20:32:24Z</time>
      </trkpt>
      <trkpt lat="45.30587" lon="5.89429">
        <ele>605.44702148438</ele>
        <time>2017-11-15T20:32:29Z</time>
      </trkpt>
      <trkpt lat="45.30587" lon="5.89436">
        <ele>604.44702148438</ele>
        <time>2017-11-15T20:32:33Z</time>
      </trkpt>
      <trkpt lat="45.30584" lon="5.8944">
        <ele>600.44702148438</ele>
        <time>2017-11-15T20:32:43Z</time>
      </trkpt>
      <trkpt lat="45.3058" lon="5.89437">
        <ele>601.44702148438</ele>
        <time>2017-11-15T20:32:49Z</time>
      </trkpt>
      <trkpt lat="45.30577" lon="5.89432">
        <ele>595.44702148438</ele>
        <time>2017-11-15T20:32:56Z</time>
      </trkpt>
      <trkpt lat="45.30578" lon="5.89425">
        <ele>595.44702148438</ele>
        <time>2017-11-15T20:33:03Z</time>
      </trkpt>
      <trkpt lat="45.30578" lon="5.89419">
        <ele>595.44702148438</ele>
        <time>2017-11-15T20:33:09Z</time>
      </trkpt>
      <trkpt lat="45.30576" lon="5.89413">
        <ele>592.44702148438</ele>
        <time>2017-11-15T20:33:12Z</time>
      </trkpt>
      <trkpt lat="45.30573" lon="5.89407">
        <ele>588.44702148438</ele>
        <time>2017-11-15T20:33:19Z</time>
      </trkpt>
      <trkpt lat="45.30571" lon="5.89401">
        <ele>588.44702148438</ele>
        <time>2017-11-15T20:33:27Z</time>
      </trkpt>
      <trkpt lat="45.30568" lon="5.89396">
        <ele>583.44702148438</ele>
        <time>2017-11-15T20:33:32Z</time>
      </trkpt>
      <trkpt lat="45.30564" lon="5.89391">
        <ele>582.44702148438</ele>
        <time>2017-11-15T20:33:38Z</time>
      </trkpt>
      <trkpt lat="45.30559" lon="5.89389">
        <ele>584.44702148438</ele>
        <time>2017-11-15T20:33:42Z</time>
      </trkpt>
      <trkpt lat="45.30556" lon="5.89383">
        <ele>583.44702148438</ele>
        <time>2017-11-15T20:33:48Z</time>
      </trkpt>
      <trkpt lat="45.30554" lon="5.89376">
        <ele>581.44702148438</ele>
        <time>2017-11-15T20:33:54Z</time>
      </trkpt>
      <trkpt lat="45.30553" lon="5.8937">
        <ele>578.44702148438</ele>
        <time>2017-11-15T20:33:58Z</time>
      </trkpt>
      <trkpt lat="45.30551" lon="5.89363">
        <ele>574.44702148438</ele>
        <time>2017-11-15T20:34:03Z</time>
      </trkpt>
      <trkpt lat="45.30554" lon="5.89357">
        <ele>574.44702148438</ele>
        <time>2017-11-15T20:34:08Z</time>
      </trkpt>
      <trkpt lat="45.30552" lon="5.89349">
        <ele>568.44702148438</ele>
        <time>2017-11-15T20:34:18Z</time>
      </trkpt>
      <trkpt lat="45.30548" lon="5.89345">
        <ele>567.44702148438</ele>
        <time>2017-11-15T20:34:26Z</time>
      </trkpt>
      <trkpt lat="45.30543" lon="5.89344">
        <ele>566.44702148438</ele>
        <time>2017-11-15T20:34:29Z</time>
      </trkpt>
      <trkpt lat="45.30542" lon="5.89338">
        <ele>565.44702148438</ele>
        <time>2017-11-15T20:34:32Z</time>
      </trkpt>
      <trkpt lat="45.30543" lon="5.8933">
        <ele>564.44702148438</ele>
        <time>2017-11-15T20:34:38Z</time>
      </trkpt>
      <trkpt lat="45.30539" lon="5.89325">
        <ele>561.44702148438</ele>
        <time>2017-11-15T20:34:42Z</time>
      </trkpt>
      <trkpt lat="45.30535" lon="5.8932">
        <ele>560.44702148438</ele>
        <time>2017-11-15T20:34:46Z</time>
      </trkpt>
      <trkpt lat="45.30532" lon="5.89316">
        <ele>559.44702148438</ele>
        <time>2017-11-15T20:34:52Z</time>
      </trkpt>
      <trkpt lat="45.30528" lon="5.89311">
        <ele>558.44702148438</ele>
        <time>2017-11-15T20:34:56Z</time>
      </trkpt>
      <trkpt lat="45.30524" lon="5.89305">
        <ele>553.44702148438</ele>
        <time>2017-11-15T20:35:01Z</time>
      </trkpt>
      <trkpt lat="45.30522" lon="5.89299">
        <ele>550.44702148438</ele>
        <time>2017-11-15T20:35:07Z</time>
      </trkpt>
      <trkpt lat="45.30526" lon="5.89293">
        <ele>547.44702148438</ele>
        <time>2017-11-15T20:35:10Z</time>
      </trkpt>
      <trkpt lat="45.30521" lon="5.89291">
        <ele>548.44702148438</ele>
        <time>2017-11-15T20:35:14Z</time>
      </trkpt>
      <trkpt lat="45.30516" lon="5.89287">
        <ele>548.44702148438</ele>
        <time>2017-11-15T20:35:17Z</time>
      </trkpt>
      <trkpt lat="45.30513" lon="5.89281">
        <ele>548.44702148438</ele>
        <time>2017-11-15T20:35:20Z</time>
      </trkpt>
      <trkpt lat="45.30511" lon="5.89274">
        <ele>546.44702148438</ele>
        <time>2017-11-15T20:35:24Z</time>
      </trkpt>
      <trkpt lat="45.30511" lon="5.89265">
        <ele>545.44702148438</ele>
        <time>2017-11-15T20:35:28Z</time>
      </trkpt>
      <trkpt lat="45.30505" lon="5.89263">
        <ele>543.44702148438</ele>
        <time>2017-11-15T20:35:34Z</time>
      </trkpt>
      <trkpt lat="45.305" lon="5.89261">
        <ele>539.44702148438</ele>
        <time>2017-11-15T20:35:42Z</time>
      </trkpt>
      <trkpt lat="45.30496" lon="5.89259">
        <ele>539.44702148438</ele>
        <time>2017-11-15T20:35:55Z</time>
      </trkpt>
      <trkpt lat="45.30491" lon="5.89257">
        <ele>538.44702148438</ele>
        <time>2017-11-15T20:36:00Z</time>
      </trkpt>
      <trkpt lat="45.30486" lon="5.89254">
        <ele>534.44598388672</ele>
        <time>2017-11-15T20:36:03Z</time>
      </trkpt>
      <trkpt lat="45.3048" lon="5.89254">
        <ele>533.44598388672</ele>
        <time>2017-11-15T20:36:05Z</time>
      </trkpt>
      <trkpt lat="45.30475" lon="5.89255">
        <ele>533.44598388672</ele>
        <time>2017-11-15T20:36:09Z</time>
      </trkpt>
      <trkpt lat="45.3047" lon="5.89252">
        <ele>532.44598388672</ele>
        <time>2017-11-15T20:36:14Z</time>
      </trkpt>
      <trkpt lat="45.30466" lon="5.89248">
        <ele>531.44598388672</ele>
        <time>2017-11-15T20:36:19Z</time>
      </trkpt>
      <trkpt lat="45.30464" lon="5.89242">
        <ele>529.44598388672</ele>
        <time>2017-11-15T20:36:22Z</time>
      </trkpt>
      <trkpt lat="45.3046" lon="5.89237">
        <ele>526.44598388672</ele>
        <time>2017-11-15T20:36:28Z</time>
      </trkpt>
      <trkpt lat="45.30456" lon="5.8923">
        <ele>527.44598388672</ele>
        <time>2017-11-15T20:36:32Z</time>
      </trkpt>
      <trkpt lat="45.30453" lon="5.89225">
        <ele>525.44598388672</ele>
        <time>2017-11-15T20:36:35Z</time>
      </trkpt>
      <trkpt lat="45.30449" lon="5.8922">
        <ele>524.44598388672</ele>
        <time>2017-11-15T20:36:38Z</time>
      </trkpt>
      <trkpt lat="45.30444" lon="5.89215">
        <ele>521.44598388672</ele>
        <time>2017-11-15T20:36:42Z</time>
      </trkpt>
      <trkpt lat="45.30441" lon="5.8921">
        <ele>517.44598388672</ele>
        <time>2017-11-15T20:36:45Z</time>
      </trkpt>
      <trkpt lat="45.30439" lon="5.89204">
        <ele>516.44598388672</ele>
        <time>2017-11-15T20:36:49Z</time>
      </trkpt>
      <trkpt lat="45.30433" lon="5.892">
        <ele>516.44598388672</ele>
        <time>2017-11-15T20:36:53Z</time>
      </trkpt>
      <trkpt lat="45.30428" lon="5.89197">
        <ele>516.44598388672</ele>
        <time>2017-11-15T20:36:55Z</time>
      </trkpt>
      <trkpt lat="45.30424" lon="5.89193">
        <ele>512.44598388672</ele>
        <time>2017-11-15T20:37:02Z</time>
      </trkpt>
      <trkpt lat="45.30419" lon="5.89188">
        <ele>511.4460144043</ele>
        <time>2017-11-15T20:37:08Z</time>
      </trkpt>
      <trkpt lat="45.30414" lon="5.89186">
        <ele>509.4460144043</ele>
        <time>2017-11-15T20:37:12Z</time>
      </trkpt>
      <trkpt lat="45.30411" lon="5.8918">
        <ele>508.4460144043</ele>
        <time>2017-11-15T20:37:15Z</time>
      </trkpt>
      <trkpt lat="45.30409" lon="5.89173">
        <ele>507.4460144043</ele>
        <time>2017-11-15T20:37:18Z</time>
      </trkpt>
      <trkpt lat="45.30408" lon="5.89167">
        <ele>506.4460144043</ele>
        <time>2017-11-15T20:37:22Z</time>
      </trkpt>
      <trkpt lat="45.30404" lon="5.89164">
        <ele>504.4460144043</ele>
        <time>2017-11-15T20:37:25Z</time>
      </trkpt>
      <trkpt lat="45.30398" lon="5.89161">
        <ele>502.4460144043</ele>
        <time>2017-11-15T20:37:47Z</time>
      </trkpt>
      <trkpt lat="45.30394" lon="5.89157">
        <ele>498.4460144043</ele>
        <time>2017-11-15T20:37:50Z</time>
      </trkpt>
      <trkpt lat="45.3039" lon="5.89159">
        <ele>502.4460144043</ele>
        <time>2017-11-15T20:38:00Z</time>
      </trkpt>
      <trkpt lat="45.30385" lon="5.89157">
        <ele>497.4460144043</ele>
        <time>2017-11-15T20:38:05Z</time>
      </trkpt>
      <trkpt lat="45.30384" lon="5.89164">
        <ele>500.4460144043</ele>
        <time>2017-11-15T20:38:13Z</time>
      </trkpt>
      <trkpt lat="45.30381" lon="5.8917">
        <ele>500.4460144043</ele>
        <time>2017-11-15T20:38:19Z</time>
      </trkpt>
      <trkpt lat="45.30378" lon="5.89176">
        <ele>500.4460144043</ele>
        <time>2017-11-15T20:38:24Z</time>
      </trkpt>
      <trkpt lat="45.30375" lon="5.8918">
        <ele>495.4460144043</ele>
        <time>2017-11-15T20:38:29Z</time>
      </trkpt>
      <trkpt lat="45.30369" lon="5.89181">
        <ele>482.4460144043</ele>
        <time>2017-11-15T20:38:34Z</time>
      </trkpt>
      <trkpt lat="45.30364" lon="5.89185">
        <ele>483.4460144043</ele>
        <time>2017-11-15T20:38:38Z</time>
      </trkpt>
      <trkpt lat="45.30362" lon="5.89193">
        <ele>487.4460144043</ele>
        <time>2017-11-15T20:38:42Z</time>
      </trkpt>
      <trkpt lat="45.30357" lon="5.89197">
        <ele>297.4460144043</ele>
        <time>2017-11-15T20:38:46Z</time>
      </trkpt>
      <trkpt lat="45.30354" lon="5.89202">
        <ele>410.4460144043</ele>
        <time>2017-11-15T20:38:53Z</time>
      </trkpt>
      <trkpt lat="45.3035" lon="5.89205">
        <ele>440.4460144043</ele>
        <time>2017-11-15T20:38:56Z</time>
      </trkpt>
      <trkpt lat="45.30348" lon="5.89212">
        <ele>455.4460144043</ele>
        <time>2017-11-15T20:39:00Z</time>
      </trkpt>
      <trkpt lat="45.30346" lon="5.89218">
        <ele>460.4460144043</ele>
        <time>2017-11-15T20:39:03Z</time>
      </trkpt>
      <trkpt lat="45.30342" lon="5.89222">
        <ele>468.4460144043</ele>
        <time>2017-11-15T20:39:07Z</time>
      </trkpt>
      <trkpt lat="45.30341" lon="5.89229">
        <ele>466.4460144043</ele>
        <time>2017-11-15T20:39:11Z</time>
      </trkpt>
      <trkpt lat="45.30336" lon="5.8923">
        <ele>465.4460144043</ele>
        <time>2017-11-15T20:39:15Z</time>
      </trkpt>
      <trkpt lat="45.30332" lon="5.89235">
        <ele>465.4460144043</ele>
        <time>2017-11-15T20:39:19Z</time>
      </trkpt>
      <trkpt lat="45.30331" lon="5.89243">
        <ele>466.4460144043</ele>
        <time>2017-11-15T20:39:23Z</time>
      </trkpt>
      <trkpt lat="45.30328" lon="5.89248">
        <ele>467.4460144043</ele>
        <time>2017-11-15T20:39:26Z</time>
      </trkpt>
      <trkpt lat="45.30326" lon="5.89255">
        <ele>467.4460144043</ele>
        <time>2017-11-15T20:39:30Z</time>
      </trkpt>
      <trkpt lat="45.30322" lon="5.89259">
        <ele>461.4460144043</ele>
        <time>2017-11-15T20:39:34Z</time>
      </trkpt>
      <trkpt lat="45.30318" lon="5.89263">
        <ele>457.4460144043</ele>
        <time>2017-11-15T20:39:38Z</time>
      </trkpt>
      <trkpt lat="45.30313" lon="5.89269">
        <ele>455.4460144043</ele>
        <time>2017-11-15T20:39:43Z</time>
      </trkpt>
      <trkpt lat="45.30312" lon="5.89278">
        <ele>456.4460144043</ele>
        <time>2017-11-15T20:39:47Z</time>
      </trkpt>
      <trkpt lat="45.30308" lon="5.89283">
        <ele>452.4460144043</ele>
        <time>2017-11-15T20:39:51Z</time>
      </trkpt>
      <trkpt lat="45.30304" lon="5.89289">
        <ele>450.4460144043</ele>
        <time>2017-11-15T20:39:55Z</time>
      </trkpt>
      <trkpt lat="45.30302" lon="5.89295">
        <ele>451.4460144043</ele>
        <time>2017-11-15T20:39:58Z</time>
      </trkpt>
      <trkpt lat="45.30302" lon="5.89302">
        <ele>451.4460144043</ele>
        <time>2017-11-15T20:40:02Z</time>
      </trkpt>
      <trkpt lat="45.30303" lon="5.89309">
        <ele>451.4460144043</ele>
        <time>2017-11-15T20:40:06Z</time>
      </trkpt>
      <trkpt lat="45.30301" lon="5.89315">
        <ele>452.4460144043</ele>
        <time>2017-11-15T20:40:10Z</time>
      </trkpt>
      <trkpt lat="45.30298" lon="5.8932">
        <ele>450.4460144043</ele>
        <time>2017-11-15T20:40:14Z</time>
      </trkpt>
      <trkpt lat="45.30293" lon="5.89324">
        <ele>448.4460144043</ele>
        <time>2017-11-15T20:40:20Z</time>
      </trkpt>
      <trkpt lat="45.30289" lon="5.89328">
        <ele>445.4460144043</ele>
        <time>2017-11-15T20:40:26Z</time>
      </trkpt>
      <trkpt lat="45.30286" lon="5.89332">
        <ele>440.4460144043</ele>
        <time>2017-11-15T20:40:31Z</time>
      </trkpt>
      <trkpt lat="45.30282" lon="5.89337">
        <ele>439.4460144043</ele>
        <time>2017-11-15T20:40:36Z</time>
      </trkpt>
      <trkpt lat="45.30277" lon="5.89339">
        <ele>437.4460144043</ele>
        <time>2017-11-15T20:40:41Z</time>
      </trkpt>
      <trkpt lat="45.30273" lon="5.89342">
        <ele>436.4460144043</ele>
        <time>2017-11-15T20:40:47Z</time>
      </trkpt>
      <trkpt lat="45.30268" lon="5.89347">
        <ele>436.4460144043</ele>
        <time>2017-11-15T20:40:52Z</time>
      </trkpt>
      <trkpt lat="45.30265" lon="5.89352">
        <ele>436.4460144043</ele>
        <time>2017-11-15T20:40:57Z</time>
      </trkpt>
      <trkpt lat="45.3026" lon="5.89356">
        <ele>436.4460144043</ele>
        <time>2017-11-15T20:41:03Z</time>
      </trkpt>
      <trkpt lat="45.30254" lon="5.89359">
        <ele>433.4460144043</ele>
        <time>2017-11-15T20:41:08Z</time>
      </trkpt>
      <trkpt lat="45.3025" lon="5.89362">
        <ele>432.4460144043</ele>
        <time>2017-11-15T20:41:12Z</time>
      </trkpt>
      <trkpt lat="45.30245" lon="5.89365">
        <ele>431.4460144043</ele>
        <time>2017-11-15T20:41:16Z</time>
      </trkpt>
      <trkpt lat="45.30241" lon="5.89368">
        <ele>430.4460144043</ele>
        <time>2017-11-15T20:41:20Z</time>
      </trkpt>
      <trkpt lat="45.30236" lon="5.89371">
        <ele>429.4460144043</ele>
        <time>2017-11-15T20:41:25Z</time>
      </trkpt>
      <trkpt lat="45.30231" lon="5.89372">
        <ele>429.4460144043</ele>
        <time>2017-11-15T20:41:33Z</time>
      </trkpt>
      <trkpt lat="45.30225" lon="5.89369">
        <ele>428.4460144043</ele>
        <time>2017-11-15T20:41:40Z</time>
      </trkpt>
      <trkpt lat="45.3022" lon="5.89369">
        <ele>427.4460144043</ele>
        <time>2017-11-15T20:41:44Z</time>
      </trkpt>
      <trkpt lat="45.30214" lon="5.89372">
        <ele>423.4460144043</ele>
        <time>2017-11-15T20:41:49Z</time>
      </trkpt>
      <trkpt lat="45.3021" lon="5.89371">
        <ele>426.4460144043</ele>
        <time>2017-11-15T20:41:52Z</time>
      </trkpt>
      <trkpt lat="45.30204" lon="5.89372">
        <ele>424.4460144043</ele>
        <time>2017-11-15T20:41:56Z</time>
      </trkpt>
      <trkpt lat="45.30197" lon="5.89372">
        <ele>419.4460144043</ele>
        <time>2017-11-15T20:41:59Z</time>
      </trkpt>
      <trkpt lat="45.30192" lon="5.89374">
        <ele>415.4460144043</ele>
        <time>2017-11-15T20:42:02Z</time>
      </trkpt>
      <trkpt lat="45.30187" lon="5.89375">
        <ele>412.4460144043</ele>
        <time>2017-11-15T20:42:05Z</time>
      </trkpt>
      <trkpt lat="45.30181" lon="5.89375">
        <ele>414.4460144043</ele>
        <time>2017-11-15T20:42:08Z</time>
      </trkpt>
      <trkpt lat="45.30176" lon="5.89375">
        <ele>414.4460144043</ele>
        <time>2017-11-15T20:42:11Z</time>
      </trkpt>
      <trkpt lat="45.30169" lon="5.89374">
        <ele>415.4460144043</ele>
        <time>2017-11-15T20:42:15Z</time>
      </trkpt>
      <trkpt lat="45.30163" lon="5.89371">
        <ele>412.4460144043</ele>
        <time>2017-11-15T20:42:18Z</time>
      </trkpt>
      <trkpt lat="45.30158" lon="5.89371">
        <ele>410.4460144043</ele>
        <time>2017-11-15T20:42:22Z</time>
      </trkpt>
      <trkpt lat="45.30152" lon="5.89368">
        <ele>406.4460144043</ele>
        <time>2017-11-15T20:42:26Z</time>
      </trkpt>
      <trkpt lat="45.30147" lon="5.89368">
        <ele>403.4460144043</ele>
        <time>2017-11-15T20:42:30Z</time>
      </trkpt>
      <trkpt lat="45.30143" lon="5.89366">
        <ele>402.4460144043</ele>
        <time>2017-11-15T20:42:33Z</time>
      </trkpt>
      <trkpt lat="45.30136" lon="5.89364">
        <ele>401.4460144043</ele>
        <time>2017-11-15T20:42:37Z</time>
      </trkpt>
      <trkpt lat="45.3013" lon="5.89365">
        <ele>402.4460144043</ele>
        <time>2017-11-15T20:42:46Z</time>
      </trkpt>
      <trkpt lat="45.30125" lon="5.89366">
        <ele>401.4460144043</ele>
        <time>2017-11-15T20:42:50Z</time>
      </trkpt>
      <trkpt lat="45.30121" lon="5.89364">
        <ele>402.4460144043</ele>
        <time>2017-11-15T20:42:54Z</time>
      </trkpt>
      <trkpt lat="45.30114" lon="5.89365">
        <ele>400.4460144043</ele>
        <time>2017-11-15T20:42:58Z</time>
      </trkpt>
      <trkpt lat="45.3011" lon="5.89365">
        <ele>399.4460144043</ele>
        <time>2017-11-15T20:43:01Z</time>
      </trkpt>
      <trkpt lat="45.30105" lon="5.89366">
        <ele>400.4460144043</ele>
        <time>2017-11-15T20:43:05Z</time>
      </trkpt>
      <trkpt lat="45.301" lon="5.89366">
        <ele>396.4460144043</ele>
        <time>2017-11-15T20:43:10Z</time>
      </trkpt>
      <trkpt lat="45.30094" lon="5.89364">
        <ele>395.4460144043</ele>
        <time>2017-11-15T20:43:15Z</time>
      </trkpt>
      <trkpt lat="45.3009" lon="5.89362">
        <ele>391.4460144043</ele>
        <time>2017-11-15T20:43:18Z</time>
      </trkpt>
      <trkpt lat="45.30084" lon="5.89361">
        <ele>386.4460144043</ele>
        <time>2017-11-15T20:43:21Z</time>
      </trkpt>
      <trkpt lat="45.30078" lon="5.89361">
        <ele>382.4460144043</ele>
        <time>2017-11-15T20:43:24Z</time>
      </trkpt>
      <trkpt lat="45.30072" lon="5.8936">
        <ele>381.4460144043</ele>
        <time>2017-11-15T20:43:28Z</time>
      </trkpt>
      <trkpt lat="45.30066" lon="5.89359">
        <ele>379.4460144043</ele>
        <time>2017-11-15T20:43:31Z</time>
      </trkpt>
      <trkpt lat="45.3006" lon="5.89358">
        <ele>379.4460144043</ele>
        <time>2017-11-15T20:43:36Z</time>
      </trkpt>
      <trkpt lat="45.30055" lon="5.89359">
        <ele>376.4460144043</ele>
        <time>2017-11-15T20:43:41Z</time>
      </trkpt>
      <trkpt lat="45.3005" lon="5.8936">
        <ele>374.4460144043</ele>
        <time>2017-11-15T20:43:44Z</time>
      </trkpt>
      <trkpt lat="45.30045" lon="5.89365">
        <ele>371.4460144043</ele>
        <time>2017-11-15T20:43:47Z</time>
      </trkpt>
      <trkpt lat="45.30039" lon="5.89371">
        <ele>371.4460144043</ele>
        <time>2017-11-15T20:43:52Z</time>
      </trkpt>
      <trkpt lat="45.30035" lon="5.89375">
        <ele>370.4460144043</ele>
        <time>2017-11-15T20:43:54Z</time>
      </trkpt>
      <trkpt lat="45.30031" lon="5.89379">
        <ele>369.4460144043</ele>
        <time>2017-11-15T20:43:57Z</time>
      </trkpt>
      <trkpt lat="45.30027" lon="5.89384">
        <ele>366.4460144043</ele>
        <time>2017-11-15T20:44:03Z</time>
      </trkpt>
      <trkpt lat="45.30027" lon="5.89392">
        <ele>366.4460144043</ele>
        <time>2017-11-15T20:44:08Z</time>
      </trkpt>
      <trkpt lat="45.30026" lon="5.89398">
        <ele>362.4460144043</ele>
        <time>2017-11-15T20:44:11Z</time>
      </trkpt>
      <trkpt lat="45.30023" lon="5.89404">
        <ele>362.4460144043</ele>
        <time>2017-11-15T20:44:13Z</time>
      </trkpt>
      <trkpt lat="45.30019" lon="5.8941">
        <ele>361.4460144043</ele>
        <time>2017-11-15T20:44:17Z</time>
      </trkpt>
      <trkpt lat="45.30016" lon="5.89415">
        <ele>361.4460144043</ele>
        <time>2017-11-15T20:44:23Z</time>
      </trkpt>
      <trkpt lat="45.30011" lon="5.8942">
        <ele>357.4460144043</ele>
        <time>2017-11-15T20:44:26Z</time>
      </trkpt>
      <trkpt lat="45.30009" lon="5.89426">
        <ele>354.4460144043</ele>
        <time>2017-11-15T20:44:30Z</time>
      </trkpt>
      <trkpt lat="45.30006" lon="5.89432">
        <ele>354.4460144043</ele>
        <time>2017-11-15T20:44:34Z</time>
      </trkpt>
      <trkpt lat="45.30003" lon="5.89438">
        <ele>355.4460144043</ele>
        <time>2017-11-15T20:44:38Z</time>
      </trkpt>
      <trkpt lat="45.30007" lon="5.89443">
        <ele>351.4460144043</ele>
        <time>2017-11-15T20:44:55Z</time>
      </trkpt>
      <trkpt lat="45.30011" lon="5.8945">
        <ele>351.4460144043</ele>
        <time>2017-11-15T20:44:58Z</time>
      </trkpt>
      <trkpt lat="45.30014" lon="5.89454">
        <ele>352.4460144043</ele>
        <time>2017-11-15T20:45:00Z</time>
      </trkpt>
      <trkpt lat="45.30016" lon="5.89463">
        <ele>354.4460144043</ele>
        <time>2017-11-15T20:45:03Z</time>
      </trkpt>
      <trkpt lat="45.30019" lon="5.8947">
        <ele>351.4460144043</ele>
        <time>2017-11-15T20:45:06Z</time>
      </trkpt>
      <trkpt lat="45.30024" lon="5.89475">
        <ele>346.4460144043</ele>
        <time>2017-11-15T20:45:09Z</time>
      </trkpt>
      <trkpt lat="45.30028" lon="5.89479">
        <ele>346.4460144043</ele>
        <time>2017-11-15T20:45:11Z</time>
      </trkpt>
      <trkpt lat="45.30033" lon="5.89482">
        <ele>343.4460144043</ele>
        <time>2017-11-15T20:45:13Z</time>
      </trkpt>
      <trkpt lat="45.30038" lon="5.89484">
        <ele>342.4460144043</ele>
        <time>2017-11-15T20:45:16Z</time>
      </trkpt>
      <trkpt lat="45.30038" lon="5.89492">
        <ele>342.4460144043</ele>
        <time>2017-11-15T20:45:19Z</time>
      </trkpt>
      <trkpt lat="45.30041" lon="5.89497">
        <ele>344.4460144043</ele>
        <time>2017-11-15T20:45:22Z</time>
      </trkpt>
      <trkpt lat="45.30045" lon="5.89501">
        <ele>345.4460144043</ele>
        <time>2017-11-15T20:45:26Z</time>
      </trkpt>
      <trkpt lat="45.30049" lon="5.89506">
        <ele>343.4460144043</ele>
        <time>2017-11-15T20:45:30Z</time>
      </trkpt>
      <trkpt lat="45.30052" lon="5.89511">
        <ele>341.4460144043</ele>
        <time>2017-11-15T20:45:34Z</time>
      </trkpt>
      <trkpt lat="45.30053" lon="5.89518">
        <ele>340.4460144043</ele>
        <time>2017-11-15T20:45:38Z</time>
      </trkpt>
      <trkpt lat="45.30055" lon="5.89525">
        <ele>338.4460144043</ele>
        <time>2017-11-15T20:45:43Z</time>
      </trkpt>
      <trkpt lat="45.30056" lon="5.89533">
        <ele>337.4460144043</ele>
        <time>2017-11-15T20:45:49Z</time>
      </trkpt>
      <trkpt lat="45.30058" lon="5.89539">
        <ele>334.4460144043</ele>
        <time>2017-11-15T20:45:55Z</time>
      </trkpt>
      <trkpt lat="45.30061" lon="5.89546">
        <ele>334.4460144043</ele>
        <time>2017-11-15T20:46:00Z</time>
      </trkpt>
      <trkpt lat="45.3006" lon="5.89553">
        <ele>332.4460144043</ele>
        <time>2017-11-15T20:46:05Z</time>
      </trkpt>
      <trkpt lat="45.3006" lon="5.8956">
        <ele>330.4460144043</ele>
        <time>2017-11-15T20:46:10Z</time>
      </trkpt>
      <trkpt lat="45.30062" lon="5.89566">
        <ele>327.4460144043</ele>
        <time>2017-11-15T20:46:15Z</time>
      </trkpt>
      <trkpt lat="45.30062" lon="5.89574">
        <ele>325.4460144043</ele>
        <time>2017-11-15T20:46:20Z</time>
      </trkpt>
      <trkpt lat="45.30065" lon="5.89581">
        <ele>328.4460144043</ele>
        <time>2017-11-15T20:46:25Z</time>
      </trkpt>
      <trkpt lat="45.30064" lon="5.89587">
        <ele>326.4460144043</ele>
        <time>2017-11-15T20:46:30Z</time>
      </trkpt>
      <trkpt lat="45.30067" lon="5.89593">
        <ele>325.4460144043</ele>
        <time>2017-11-15T20:46:35Z</time>
      </trkpt>
      <trkpt lat="45.3007" lon="5.89598">
        <ele>323.4460144043</ele>
        <time>2017-11-15T20:46:38Z</time>
      </trkpt>
      <trkpt lat="45.30075" lon="5.89604">
        <ele>323.4460144043</ele>
        <time>2017-11-15T20:46:41Z</time>
      </trkpt>
      <trkpt lat="45.30078" lon="5.89607">
        <ele>325.4460144043</ele>
        <time>2017-11-15T20:46:47Z</time>
      </trkpt>
      <trkpt lat="45.30084" lon="5.89609">
        <ele>322.4460144043</ele>
        <time>2017-11-15T20:46:53Z</time>
      </trkpt>
      <trkpt lat="45.30088" lon="5.89613">
        <ele>323.4460144043</ele>
        <time>2017-11-15T20:46:56Z</time>
      </trkpt>
      <trkpt lat="45.30089" lon="5.89621">
        <ele>321.4460144043</ele>
        <time>2017-11-15T20:47:02Z</time>
      </trkpt>
      <trkpt lat="45.30085" lon="5.89625">
        <ele>317.4460144043</ele>
        <time>2017-11-15T20:47:07Z</time>
      </trkpt>
      <trkpt lat="45.30082" lon="5.8963">
        <ele>313.4460144043</ele>
        <time>2017-11-15T20:47:11Z</time>
      </trkpt>
      <trkpt lat="45.30078" lon="5.89635">
        <ele>309.4460144043</ele>
        <time>2017-11-15T20:47:17Z</time>
      </trkpt>
      <trkpt lat="45.30077" lon="5.89643">
        <ele>310.4460144043</ele>
        <time>2017-11-15T20:47:20Z</time>
      </trkpt>
      <trkpt lat="45.30074" lon="5.89647">
        <ele>311.4460144043</ele>
        <time>2017-11-15T20:47:23Z</time>
      </trkpt>
      <trkpt lat="45.30073" lon="5.89655">
        <ele>315.4460144043</ele>
        <time>2017-11-15T20:47:27Z</time>
      </trkpt>
      <trkpt lat="45.30073" lon="5.89662">
        <ele>314.4460144043</ele>
        <time>2017-11-15T20:47:30Z</time>
      </trkpt>
      <trkpt lat="45.30073" lon="5.89669">
        <ele>311.4460144043</ele>
        <time>2017-11-15T20:47:35Z</time>
      </trkpt>
      <trkpt lat="45.30072" lon="5.89677">
        <ele>312.4460144043</ele>
        <time>2017-11-15T20:47:39Z</time>
      </trkpt>
      <trkpt lat="45.30071" lon="5.89683">
        <ele>306.4460144043</ele>
        <time>2017-11-15T20:47:44Z</time>
      </trkpt>
      <trkpt lat="45.30072" lon="5.89691">
        <ele>303.4460144043</ele>
        <time>2017-11-15T20:47:49Z</time>
      </trkpt>
      <trkpt lat="45.30071" lon="5.89698">
        <ele>294.4460144043</ele>
        <time>2017-11-15T20:47:55Z</time>
      </trkpt>
      <trkpt lat="45.3007" lon="5.89704">
        <ele>290.4460144043</ele>
        <time>2017-11-15T20:48:00Z</time>
      </trkpt>
      <trkpt lat="45.3007" lon="5.89711">
        <ele>286.4460144043</ele>
        <time>2017-11-15T20:48:04Z</time>
      </trkpt>
      <trkpt lat="45.30066" lon="5.89719">
        <ele>283.4460144043</ele>
        <time>2017-11-15T20:48:08Z</time>
      </trkpt>
      <trkpt lat="45.30066" lon="5.89725">
        <ele>285.4460144043</ele>
        <time>2017-11-15T20:48:11Z</time>
      </trkpt>
      <trkpt lat="45.30065" lon="5.89732">
        <ele>283.4460144043</ele>
        <time>2017-11-15T20:48:14Z</time>
      </trkpt>
      <trkpt lat="45.30062" lon="5.89738">
        <ele>280.4460144043</ele>
        <time>2017-11-15T20:48:17Z</time>
      </trkpt>
      <trkpt lat="45.30061" lon="5.89745">
        <ele>278.4460144043</ele>
        <time>2017-11-15T20:48:21Z</time>
      </trkpt>
      <trkpt lat="45.30056" lon="5.89751">
        <ele>276.4460144043</ele>
        <time>2017-11-15T20:48:25Z</time>
      </trkpt>
      <trkpt lat="45.30053" lon="5.8976">
        <ele>273.4460144043</ele>
        <time>2017-11-15T20:48:30Z</time>
      </trkpt>
      <trkpt lat="45.30049" lon="5.89765">
        <ele>270.4460144043</ele>
        <time>2017-11-15T20:48:34Z</time>
      </trkpt>
      <trkpt lat="45.30045" lon="5.89771">
        <ele>273.4460144043</ele>
        <time>2017-11-15T20:48:37Z</time>
      </trkpt>
      <trkpt lat="45.30041" lon="5.89773">
        <ele>274.4460144043</ele>
        <time>2017-11-15T20:48:40Z</time>
      </trkpt>
      <trkpt lat="45.30039" lon="5.89781">
        <ele>269.4460144043</ele>
        <time>2017-11-15T20:48:44Z</time>
      </trkpt>
      <trkpt lat="45.30035" lon="5.89785">
        <ele>269.4460144043</ele>
        <time>2017-11-15T20:48:48Z</time>
      </trkpt>
      <trkpt lat="45.30031" lon="5.89788">
        <ele>270.4460144043</ele>
        <time>2017-11-15T20:48:52Z</time>
      </trkpt>
      <trkpt lat="45.30026" lon="5.89792">
        <ele>271.4460144043</ele>
        <time>2017-11-15T20:48:56Z</time>
      </trkpt>
      <trkpt lat="45.30021" lon="5.89793">
        <ele>273.4460144043</ele>
        <time>2017-11-15T20:48:59Z</time>
      </trkpt>
      <trkpt lat="45.30016" lon="5.89796">
        <ele>271.4460144043</ele>
        <time>2017-11-15T20:49:03Z</time>
      </trkpt>
      <trkpt lat="45.30012" lon="5.89796">
        <ele>272.4460144043</ele>
        <time>2017-11-15T20:49:06Z</time>
      </trkpt>
      <trkpt lat="45.30008" lon="5.898">
        <ele>268.4460144043</ele>
        <time>2017-11-15T20:49:12Z</time>
      </trkpt>
      <trkpt lat="45.30002" lon="5.89801">
        <ele>268.4460144043</ele>
        <time>2017-11-15T20:49:16Z</time>
      </trkpt>
      <trkpt lat="45.29996" lon="5.89804">
        <ele>265.4460144043</ele>
        <time>2017-11-15T20:49:21Z</time>
      </trkpt>
      <trkpt lat="45.29991" lon="5.89807">
        <ele>262.4460144043</ele>
        <time>2017-11-15T20:49:25Z</time>
      </trkpt>
      <trkpt lat="45.29986" lon="5.89809">
        <ele>265.4460144043</ele>
        <time>2017-11-15T20:49:28Z</time>
      </trkpt>
      <trkpt lat="45.29983" lon="5.89813">
        <ele>262.4460144043</ele>
        <time>2017-11-15T20:49:32Z</time>
      </trkpt>
      <trkpt lat="45.29979" lon="5.89819">
        <ele>264.4460144043</ele>
        <time>2017-11-15T20:49:35Z</time>
      </trkpt>
      <trkpt lat="45.29976" lon="5.89825">
        <ele>264.4460144043</ele>
        <time>2017-11-15T20:49:38Z</time>
      </trkpt>
      <trkpt lat="45.29972" lon="5.89832">
        <ele>263.4460144043</ele>
        <time>2017-11-15T20:49:42Z</time>
      </trkpt>
      <trkpt lat="45.29968" lon="5.89835">
        <ele>262.4460144043</ele>
        <time>2017-11-15T20:49:45Z</time>
      </trkpt>
      <trkpt lat="45.29967" lon="5.89842">
        <ele>263.4460144043</ele>
        <time>2017-11-15T20:49:48Z</time>
      </trkpt>
      <trkpt lat="45.29966" lon="5.89848">
        <ele>261.4460144043</ele>
        <time>2017-11-15T20:49:53Z</time>
      </trkpt>
      <trkpt lat="45.29963" lon="5.89853">
        <ele>260.4460144043</ele>
        <time>2017-11-15T20:49:57Z</time>
      </trkpt>
      <trkpt lat="45.29958" lon="5.89857">
        <ele>258.4460144043</ele>
        <time>2017-11-15T20:50:01Z</time>
      </trkpt>
      <trkpt lat="45.29954" lon="5.89862">
        <ele>258.4460144043</ele>
        <time>2017-11-15T20:50:05Z</time>
      </trkpt>
      <trkpt lat="45.2995" lon="5.89865">
        <ele>259.4460144043</ele>
        <time>2017-11-15T20:50:08Z</time>
      </trkpt>
      <trkpt lat="45.29944" lon="5.89868">
        <ele>261.4460144043</ele>
        <time>2017-11-15T20:50:11Z</time>
      </trkpt>
      <trkpt lat="45.29939" lon="5.8987">
        <ele>259.4460144043</ele>
        <time>2017-11-15T20:50:15Z</time>
      </trkpt>
      <trkpt lat="45.29935" lon="5.89872">
        <ele>260.4460144043</ele>
        <time>2017-11-15T20:50:18Z</time>
      </trkpt>
      <trkpt lat="45.2993" lon="5.89875">
        <ele>260.4460144043</ele>
        <time>2017-11-15T20:50:21Z</time>
      </trkpt>
      <trkpt lat="45.29925" lon="5.89878">
        <ele>261.4460144043</ele>
        <time>2017-11-15T20:50:24Z</time>
      </trkpt>
      <trkpt lat="45.29922" lon="5.89883">
        <ele>258.4460144043</ele>
        <time>2017-11-15T20:50:28Z</time>
      </trkpt>
      <trkpt lat="45.29915" lon="5.89886">
        <ele>257.4460144043</ele>
        <time>2017-11-15T20:50:32Z</time>
      </trkpt>
      <trkpt lat="45.29912" lon="5.89891">
        <ele>256.4460144043</ele>
        <time>2017-11-15T20:50:35Z</time>
      </trkpt>
      <trkpt lat="45.29907" lon="5.89892">
        <ele>255.44599914551</ele>
        <time>2017-11-15T20:50:39Z</time>
      </trkpt>
      <trkpt lat="45.29902" lon="5.89893">
        <ele>252.44599914551</ele>
        <time>2017-11-15T20:50:43Z</time>
      </trkpt>
      <trkpt lat="45.29898" lon="5.89897">
        <ele>248.44599914551</ele>
        <time>2017-11-15T20:50:47Z</time>
      </trkpt>
      <trkpt lat="45.29893" lon="5.89904">
        <ele>249.44599914551</ele>
        <time>2017-11-15T20:50:54Z</time>
      </trkpt>
    </trkseg>
  </trk>
</gpx>